Return to Metar
METAR CYNL 230500Z AUTO 00000KT 9SM CLR 09/09 A3009 RMK AO1 SLP190
SPECI CYNL 230459Z AUTO 00000KT 2 1/2SM CLR 09/09 A3009 RMK AO1 SLP191
SPECI CYNL 230458Z AUTO 00000KT 3/4SM CLR 09/09 A3009 RMK AO1 SLP191
SPECI CYNL 230456Z AUTO 10002KT 1/4SM CLR 09/09 A3009 RMK AO1 SLP191
SPECI CYNL 230454Z AUTO 09003KT 1/8SM CLR 09/09 A3009 RMK AO1 SLP191
SPECI CYNL 230452Z AUTO 09003KT 1 1/4SM CLR 09/09 A3009 RMK AO1 SLP191
SPECI CYNL 230449Z AUTO 00000KT 3SM CLR 09/09 A3009 RMK AO1 SLP191
SPECI CYNL 230447Z AUTO 08002KT 2 1/2SM CLR 09/09 A3009 RMK AO1 SLP191
METAR CYNL 230400Z AUTO 02003KT 9SM CLR 10/10 A3008 RMK AO1 SLP188
METAR CYNL 230300Z AUTO 13007KT 9SM FEW078 11/10 A3009 RMK AO1 SLP191
METAR CYNL 230200Z AUTO 11005KT 9SM CLR 12/10 A3007 RMK AO1 SLP187
METAR CYNL 230100Z AUTO 20007KT 9SM FEW007 BKN045 12/11 A3008 RMK AO1 SLP188
SPECI CYNL 230054Z AUTO 17007KT 9SM FEW007 SCT013 BKN045 12/10 A3007 RMK AO1 SLP189
SPECI CYNL 230053Z AUTO 16007KT 9SM VV009 12/10 A3007 RMK AO1 SLP189
SPECI CYNL 230052Z AUTO 16007KT 9SM VV014 12/10 A3007 RMK AO1 SLP189
SPECI CYNL 230050Z AUTO 16006KT 9SM VV024 12/10 A3007 RMK AO1 SLP189
SPECI CYNL 230049Z AUTO 16007KT 9SM VV027 12/10 A3007 RMK AO1 SLP190
SPECI CYNL 230039Z AUTO 18003KT 3SM FEW032 SCT046 12/10 A3007 RMK AO1 SLP190
SPECI CYNL 230037Z AUTO 19004KT 2 1/2SM FEW031 SCT050 12/10 A3007 RMK AO1 SLP190
METAR CYNL 230000Z AUTO 10006KT 9SM FEW025 SCT049 12/09 A3007 RMK AO1 SLP190
SPECI CYNL 222343Z AUTO 10006KT 9SM FEW011 SCT035 BKN050 12/10 A3008 RMK AO1 SLP192
SPECI CYNL 222341Z AUTO 08007KT 6SM VV024 12/10 A3008 RMK AO1 SLP192
SPECI CYNL 222306Z AUTO 29005KT 3SM SCT023 BKN035 OVC050 12/08 A3008 RMK AO1 SLP193
SPECI CYNL 222303Z AUTO 27004KT 2SM FEW015 SCT024 BKN035 12/08 A3008 RMK AO1 SLP193
SPECI CYNL 222302Z AUTO 25004KT 1 3/4SM FEW015 SCT024 BKN035 12/08 A3008 RMK AO1 SLP193
METAR CYNL 222300Z AUTO 23009KT 2SM VV037 12/07 A3008 RMK AO1 SLP194
SPECI CYNL 222256Z AUTO 26005KT 2SM VV033 11/07 A3008 RMK AO1 SLP196
SPECI CYNL 222255Z AUTO 25004KT 1 1/2SM VV030 11/08 A3008 RMK AO1 SLP196
SPECI CYNL 222251Z AUTO 26004KT 1 1/4SM VV025 10/08 A3008 RMK AO1 SLP197
SPECI CYNL 222249Z AUTO 26004G16KT 1SM VV023 10/08 A3008 RMK AO1 SLP197
SPECI CYNL 222247Z AUTO 24006G16KT 3/4SM FEW003 SCT023 OVC036 11/08 A3009 RMK AO1 SLP198
SPECI CYNL 222244Z AUTO 26006G21KT 1SM FEW003 SCT022 BKN036 11/08 A3009 RMK AO1 SLP198
SPECI CYNL 222243Z AUTO 26007G21KT 3/4SM VV021 11/08 A3009 RMK AO1 SLP198
SPECI CYNL 222242Z AUTO 25008G21KT 1SM VV021 11/09 A3009 RMK AO1 SLP198
SPECI CYNL 222241Z AUTO 25009G21KT 3/4SM FEW019 BKN036 OVC170 11/09 A3009 RMK AO1 SLP197
SPECI CYNL 222237Z AUTO 25011G21KT 5/8SM FEW016 BKN036 12/09 A3008 RMK AO1 SLP194
SPECI CYNL 222235Z AUTO 25015G21KT 1 3/4SM BKN036 BKN052 13/09 A3008 RMK AO1 SLP192
METAR CYNL 222200Z AUTO 07007KT 9SM SCT054 BKN070 17/09 A3006 RMK AO1 SLP184
METAR CYNL 222100Z AUTO 10010KT 9SM FEW037 18/09 A3007 RMK AO1 SLP185
METAR CYNL 222000Z AUTO 12007KT 9SM FEW050 SCT160 17/10 A3008 RMK AO1 SLP188
METAR CYNL 221900Z AUTO 11007KT 9SM FEW028 16/10 A3008 RMK AO1 SLP189
SPECI CYNL 221803Z AUTO 13008KT 9SM SCT022 16/10 A3008 RMK AO1 SLP190
METAR CYNL 221800Z AUTO 14008KT 9SM BKN022 16/10 A3008 RMK AO1 SLP190
SPECI CYNL 221752Z AUTO 12005KT 9SM BKN021 16/10 A3009 RMK AO1 SLP191
SPECI CYNL 221750Z AUTO 13005KT 9SM SCT021 16/10 A3009 RMK AO1 SLP191
SPECI CYNL 221745Z AUTO 12009KT 9SM BKN020 16/10 A3009 RMK AO1 SLP191
METAR CYNL 221700Z AUTO 13009KT 9SM FEW017 15/10 A3009 RMK AO1 SLP194
SPECI CYNL 221619Z AUTO 12009KT 9SM SCT010 BKN210 14/11 A3009 RMK AO1 SLP193
SPECI CYNL 221603Z AUTO 14006KT 9SM BKN010 OVC012 13/11 A3009 RMK AO1 SLP194
METAR CYNL 221600Z AUTO 13006KT 9SM BKN009 OVC012 13/11 A3009 RMK AO1 SLP195
SPECI CYNL 221514Z AUTO 12006KT 9SM OVC005 12/12 A3009 RMK AO1 SLP192
METAR CYNL 221500Z AUTO 11007KT 9SM OVC004 12/12 A3009 RMK AO1 SLP192
SPECI CYNL 221439Z AUTO 12005KT 9SM OVC003 12/12 A3008 RMK AO1 SLP189
SPECI CYNL 221427Z AUTO 13005KT 3SM OVC002 11/11 A3008 RMK AO1 SLP190
SPECI CYNL 221423Z AUTO 12005KT 2 1/2SM OVC002 11/11 A3008 RMK AO1 SLP190
SPECI CYNL 221422Z AUTO 13005KT 1 3/4SM OVC002 11/11 A3008 RMK AO1 SLP190
SPECI CYNL 221421Z AUTO 13005KT 1SM OVC002 11/11 A3008 RMK AO1 SLP190
SPECI CYNL 221419Z AUTO 13004KT 3/4SM BKN002 OVC004 11/11 A3009 RMK AO1 SLP190
SPECI CYNL 221417Z AUTO 12004KT 3/8SM BKN002 OVC004 11/11 A3009 RMK AO1 SLP190
SPECI CYNL 221413Z AUTO 11004KT 1/4SM VV003 11/11 A3009 RMK AO1 SLP190
SPECI CYNL 221410Z AUTO 12004KT 1/8SM BKN003 OVC006 11/11 A3009 RMK AO1 SLP190
SPECI CYNL 221406Z AUTO 13005KT 1/8SM BKN002 BKN004 OVC006 11/11 A3009 RMK AO1 SLP190
SPECI CYNL 221403Z AUTO 12004KT 1/2SM BKN002 OVC005 11/11 A3009 RMK AO1 SLP190
SPECI CYNL 221401Z AUTO 11004KT 2 1/2SM BKN002 BKN004 OVC006 11/11 A3009 RMK AO1 SLP190
METAR CYNL 221400Z AUTO 11004KT 9SM BKN003 OVC006 11/11 A3009 RMK AO1 SLP190
SPECI CYNL 221331Z AUTO 12005KT 5SM BKN003 10/10 A3008 RMK AO1 SLP188
SPECI CYNL 221329Z AUTO 13005KT 4SM BKN002 10/10 A3008 RMK AO1 SLP188
SPECI CYNL 221328Z AUTO 12005KT 2 1/2SM BKN002 10/10 A3008 RMK AO1 SLP188
SPECI CYNL 221327Z AUTO 12005KT 1 3/4SM BKN002 10/10 A3008 RMK AO1 SLP188
SPECI CYNL 221325Z AUTO 13005KT 1SM FEW001 BKN002 BKN004 10/10 A3008 RMK AO1 SLP188
SPECI CYNL 221322Z AUTO 12005KT 3/4SM FEW001 BKN002 BKN004 10/10 A3008 RMK AO1 SLP188
SPECI CYNL 221320Z AUTO 12005KT 1 1/4SM FEW001 BKN002 BKN004 10/10 A3008 RMK AO1 SLP188
SPECI CYNL 221319Z AUTO 12005KT 1 1/2SM FEW001 BKN003 BKN064 10/10 A3008 RMK AO1 SLP188
SPECI CYNL 221318Z AUTO 11004KT 1 1/4SM FEW001 BKN002 BKN064 09/09 A3008 RMK AO1 SLP188
SPECI CYNL 221317Z AUTO 11004KT 3/4SM FEW001 SCT002 BKN004 09/09 A3008 RMK AO1 SLP188
SPECI CYNL 221312Z AUTO 08003KT 1/4SM VV003 09/09 A3008 RMK AO1 SLP188
SPECI CYNL 221308Z AUTO 00000KT 1/8SM FEW001 SCT003 BKN064 09/09 A3008 RMK AO1 SLP188
SPECI CYNL 221302Z AUTO 00000KT 5/8SM SCT001 BKN064 09/09 A3008 RMK AO1 SLP188
SPECI CYNL 221301Z AUTO 00000KT 3/4SM SCT001 BKN064 09/09 A3008 RMK AO1 SLP188
METAR CYNL 221300Z AUTO 00000KT 1SM VV001 09/09 A3007 RMK AO1 SLP188
SPECI CYNL 221258Z AUTO 08002KT 1 1/4SM VV001 09/09 A3007 RMK AO1 SLP187
SPECI CYNL 221257Z AUTO 08002KT 1 3/4SM VV001 09/09 A3007 RMK AO1 SLP187
SPECI CYNL 221256Z AUTO 00000KT 2 1/2SM FEW001 BKN064 09/09 A3007 RMK AO1 SLP187
SPECI CYNL 221255Z AUTO 00000KT 3SM FEW001 BKN064 09/09 A3007 RMK AO1 SLP187
SPECI CYNL 221253Z AUTO 07002KT 2SM FEW001 BKN064 09/09 A3007 RMK AO1 SLP186
SPECI CYNL 221250Z AUTO 00000KT 1 1/2SM BKN064 09/08 A3007 RMK AO1 SLP186
SPECI CYNL 221249Z AUTO 00000KT 1 1/4SM BKN064 08/08 A3007 RMK AO1 SLP186
SPECI CYNL 221248Z AUTO 00000KT 3/4SM BKN064 08/08 A3007 RMK AO1 SLP186
SPECI CYNL 221237Z AUTO 08003KT 1/4SM SCT064 08/08 A3007 RMK AO1 SLP186
SPECI CYNL 221222Z AUTO 06003KT 1/8SM SCT064 08/08 A3007 RMK AO1 SLP185
SPECI CYNL 221214Z AUTO 00000KT 5/8SM BKN064 08/08 A3007 RMK AO1 SLP186
SPECI CYNL 221212Z AUTO 00000KT 1 1/4SM BKN064 08/08 A3007 RMK AO1 SLP185
SPECI CYNL 221211Z AUTO 07002KT 2 1/2SM BKN064 08/08 A3007 RMK AO1 SLP185
SPECI CYNL 221205Z AUTO 07002KT 3SM BKN064 08/08 A3007 RMK AO1 SLP185
SPECI CYNL 221204Z AUTO 07002KT 2SM BKN064 08/08 A3006 RMK AO1 SLP185
SPECI CYNL 221203Z AUTO 00000KT 1 1/4SM SCT064 08/08 A3006 RMK AO1 SLP185
SPECI CYNL 221202Z AUTO 00000KT 3/4SM SCT064 08/08 A3006 RMK AO1 SLP184
METAR CYNL 221200Z AUTO 00000KT 3/8SM SCT064 08/08 A3006 RMK AO1 SLP184
SPECI CYNL 221157Z AUTO 00000KT 1/4SM SCT064 08/08 A3006 RMK AO1 SLP184
SPECI CYNL 221119Z AUTO 05004KT 1/8SM SCT062 07/07 A3005 RMK AO1 SLP181
METAR CYNL 221100Z AUTO 06004KT 1/4SM OVC062 07/07 A3005 RMK AO1 SLP181
SPECI CYNL 221058Z AUTO 06004KT 1/2SM OVC062 07/07 A3005 RMK AO1 SLP182
SPECI CYNL 221056Z AUTO 07004KT 1 1/4SM OVC062 07/07 A3005 RMK AO1 SLP182
SPECI CYNL 221055Z AUTO 07004KT 1 1/2SM OVC060 07/07 A3005 RMK AO1 SLP182
SPECI CYNL 221054Z AUTO 07004KT 2SM OVC060 07/07 A3005 RMK AO1 SLP182
SPECI CYNL 221043Z AUTO 08003KT 5SM OVC062 06/06 A3005 RMK AO1 SLP181
SPECI CYNL 221042Z AUTO 08003KT 2SM OVC062 06/06 A3005 RMK AO1 SLP181
SPECI CYNL 221041Z AUTO 08003KT 1SM OVC062 06/06 A3005 RMK AO1 SLP181
SPECI CYNL 221032Z AUTO 05003KT 1/2SM OVC060 07/07 A3005 RMK AO1 SLP180
SPECI CYNL 221031Z AUTO 05003KT 1SM OVC060 07/07 A3005 RMK AO1 SLP180
SPECI CYNL 221028Z AUTO 04002KT 4SM OVC060 07/07 A3005 RMK AO1 SLP180
SPECI CYNL 221023Z AUTO 00000KT 2SM OVC062 07/07 A3005 RMK AO1 SLP179
SPECI CYNL 221020Z AUTO 00000KT 3SM OVC062 07/07 A3005 RMK AO1 SLP179
SPECI CYNL 221019Z AUTO 00000KT 2SM OVC062 07/07 A3005 RMK AO1 SLP179
SPECI CYNL 221018Z AUTO 00000KT 1 1/4SM BKN060 07/07 A3005 RMK AO1 SLP179
SPECI CYNL 221009Z AUTO 03002KT 1/2SM BKN060 06/06 A3005 RMK AO1 SLP180
SPECI CYNL 221007Z AUTO 03002KT 1 3/4SM BKN060 06/06 A3005 RMK AO1 SLP180
SPECI CYNL 221006Z AUTO 03002KT 1SM BKN060 06/06 A3005 RMK AO1 SLP180
SPECI CYNL 221003Z AUTO 03003KT 1/4SM SCT060 06/06 A3005 RMK AO1 SLP180
METAR CYNL 221000Z AUTO 03003KT 1/8SM SCT060 06/06 A3005 RMK AO1 SLP180
SPECI CYNL 220949Z AUTO 03002KT 1/8SM FEW060 06/06 A3005 RMK AO1 SLP180
SPECI CYNL 220929Z AUTO 06002KT 1/4SM FEW060 06/06 A3004 RMK AO1 SLP179
SPECI CYNL 220927Z AUTO 00000KT 1/8SM FEW060 06/06 A3004 RMK AO1 SLP179
SPECI CYNL 220924Z AUTO 04002KT 1/4SM FEW058 06/06 A3004 RMK AO1 SLP179
SPECI CYNL 220922Z AUTO 04002KT 1 3/4SM FEW058 06/06 A3004 RMK AO1 SLP179
SPECI CYNL 220921Z AUTO 00000KT 2 1/2SM FEW058 06/06 A3004 RMK AO1 SLP179
SPECI CYNL 220919Z AUTO 00000KT 3SM CLR 06/06 A3004 RMK AO1 SLP179
SPECI CYNL 220918Z AUTO 00000KT 1 1/2SM CLR 06/06 A3004 RMK AO1 SLP179
SPECI CYNL 220917Z AUTO 00000KT 1SM CLR 06/06 A3004 RMK AO1 SLP179
SPECI CYNL 220916Z AUTO 00000KT 1 1/2SM CLR 06/06 A3004 RMK AO1 SLP179
SPECI CYNL 220912Z AUTO 00000KT 3SM CLR 06/06 A3004 RMK AO1 SLP179
SPECI CYNL 220911Z AUTO 00000KT 1SM CLR 06/06 A3004 RMK AO1 SLP179
METAR CYNL 220900Z AUTO 00000KT 1/2SM CLR 07/07 A3005 RMK AO1 SLP179
SPECI CYNL 220859Z AUTO 00000KT 1/4SM CLR 07/07 A3005 RMK AO1 SLP178
SPECI CYNL 220847Z AUTO 24003KT 1/8SM CLR 07/07 A3005 RMK AO1 SLP178
SPECI CYNL 220845Z AUTO 24003KT 1/2SM CLR 07/07 A3004 RMK AO1 SLP178
SPECI CYNL 220844Z AUTO 24003KT 1 1/4SM CLR 07/07 A3004 RMK AO1 SLP178
SPECI CYNL 220843Z AUTO 24003KT 2SM CLR 07/07 A3004 RMK AO1 SLP178
SPECI CYNL 220815Z AUTO 00000KT 6SM CLR 07/07 A3004 RMK AO1 SLP176
SPECI CYNL 220814Z AUTO 00000KT 1 1/4SM CLR 07/07 A3004 RMK AO1 SLP176
SPECI CYNL 220812Z AUTO 00000KT 1/4SM CLR 07/07 A3004 RMK AO1 SLP176
SPECI CYNL 220809Z AUTO 00000KT 1/8SM CLR 07/07 A3004 RMK AO1 SLP176
SPECI CYNL 220804Z AUTO 00000KT 3/8SM CLR 07/07 A3004 RMK AO1 SLP176
SPECI CYNL 220803Z AUTO 00000KT 2 1/2SM CLR 07/07 A3004 RMK AO1 SLP176
METAR CYNL 220800Z AUTO 00000KT 1/4SM FEW220 08/07 A3004 RMK AO1 SLP175
SPECI CYNL 220759Z AUTO 00000KT 1/2SM FEW220 08/07 A3004 RMK AO1 SLP175
SPECI CYNL 220758Z AUTO 27002KT 1 1/4SM FEW220 08/07 A3004 RMK AO1 SLP175
SPECI CYNL 220757Z AUTO 26002KT 1 3/4SM FEW220 08/07 A3004 RMK AO1 SLP175
SPECI CYNL 220756Z AUTO 26002KT 1SM FEW220 08/07 A3004 RMK AO1 SLP175
SPECI CYNL 220754Z AUTO 26002KT 1/4SM FEW220 08/07 A3004 RMK AO1 SLP175
SPECI CYNL 220752Z AUTO 26002KT 1/8SM SCT220 08/07 A3004 RMK AO1 SLP176
SPECI CYNL 220751Z AUTO 26002KT 3/8SM SCT220 08/07 A3004 RMK AO1 SLP176
SPECI CYNL 220750Z AUTO 00000KT 2SM SCT220 08/07 A3004 RMK AO1 SLP176
SPECI CYNL 220728Z AUTO 00000KT 3SM BKN220 08/08 A3004 RMK AO1 SLP175
SPECI CYNL 220726Z AUTO 00000KT 1 3/4SM BKN220 08/08 A3004 RMK AO1 SLP175
METAR CYNL 220700Z AUTO 00000KT 9SM SCT220 08/07 A3004 RMK AO1 SLP175
METAR CYNL 220600Z AUTO 06003KT 4SM SCT220 08/08 A3003 RMK AO1 SLP173
SPECI CYNL 220559Z AUTO 05003KT 1SM SCT220 08/08 A3003 RMK AO1 SLP173
SPECI CYNL 220555Z AUTO 07002KT 5/8SM SCT220 08/08 A3003 RMK AO1 SLP174
SPECI CYNL 220554Z AUTO 00000KT 1 1/2SM SCT220 08/08 A3003 RMK AO1 SLP174
METAR CYNL 220500Z AUTO 00000KT 9SM FEW220 09/08 A3002 RMK AO1 SLP171
METAR CYNL 220400Z AUTO 00000KT 9SM CLR 11/09 A3001 RMK AO1 SLP167
METAR CYNL 220300Z AUTO 00000KT 9SM OVC072 13/11 A3001 RMK AO1 SLP162
METAR CYNL 220200Z AUTO 34003KT 9SM OVC066 15/10 A3000 RMK AO1 SLP158
METAR CYNL 220100Z AUTO 32003KT 9SM FEW070 SCT084 15/09 A2999 RMK AO1 SLP154
METAR CYNL 220000Z AUTO 30005KT 9SM FEW026 SCT082 15/10 A2998 RMK AO1 SLP153
METAR CYNL 212300Z AUTO 35005KT 9SM SCT020 BKN054 15/10 A2997 RMK AO1 SLP150
METAR CYNL 212200Z AUTO 27009KT 9SM FEW034 15/10 A2996 RMK AO1 SLP146
METAR CYNL 212100Z AUTO 28009KT 9SM FEW070 16/10 A2994 RMK AO1 SLP140
METAR CYNL 212000Z AUTO 31007KT 9SM FEW060 16/09 A2993 RMK AO1 SLP134
METAR CYNL 211900Z AUTO 30009KT 9SM FEW039 SCT200 14/09 A2991 RMK AO1 SLP131
SPECI CYNL 211822Z AUTO 31007KT 3SM FEW013 SCT016 BKN056 13/11 A2990 RMK AO1 SLP129
SPECI CYNL 211821Z AUTO 31007KT 2 1/2SM FEW013 SCT017 BKN056 14/11 A2990 RMK AO1 SLP129
METAR CYNL 211800Z AUTO 30005KT 9SM FEW016 SCT020 BKN039 14/10 A2990 RMK AO1 SLP127
SPECI CYNL 211713Z AUTO 31006KT 9SM FEW014 SCT028 BKN150 12/10 A2990 RMK AO1 PRESRR SLP127
SPECI CYNL 211706Z AUTO 30007KT 3SM FEW014 BKN028 BKN130 12/10 A2990 RMK AO1 PRESRR SLP127
SPECI CYNL 211704Z AUTO 30007KT 2 1/2SM FEW013 SCT019 BKN028 12/10 A2990 RMK AO1 PRESRR SLP127
METAR CYNL 211700Z AUTO 31006KT 9SM FEW013 SCT020 BKN027 12/11 A2989 RMK AO1 PRESRR SLP127
SPECI CYNL 211654Z AUTO 31006G16KT 4SM VV026 12/11 A2989 RMK AO1 PRESRR SLP125
SPECI CYNL 211653Z AUTO 30006G16KT 2SM VV026 12/11 A2989 RMK AO1 PRESRR SLP125
SPECI CYNL 211652Z AUTO 30008G16KT 1 3/4SM VV026 12/11 A2989 RMK AO1 PRESRR SLP125
SPECI CYNL 211651Z AUTO 30009G16KT 2SM SCT013 BKN023 BKN130 12/11 A2989 RMK AO1 PRESRR SLP125
SPECI CYNL 211650Z AUTO 31007G16KT 1 3/4SM SCT013 BKN023 BKN210 12/11 A2989 RMK AO1 PRESRR SLP124
SPECI CYNL 211648Z AUTO 30008G16KT 1 1/4SM SCT014 BKN023 BKN210 13/11 A2989 RMK AO1 PRESRR SLP124
SPECI CYNL 211647Z AUTO 30008G16KT 1 1/4SM SCT014 BKN025 BKN210 13/11 A2989 RMK AO1 PRESRR SLP123
SPECI CYNL 211646Z AUTO 29007KT 2 1/2SM SCT013 BKN022 BKN210 13/11 A2989 RMK AO1 PRESRR SLP123
SPECI CYNL 211643Z AUTO 29007KT 6SM SCT013 BKN022 BKN210 13/10 A2989 RMK AO1 PRESRR SLP122
SPECI CYNL 211637Z AUTO 32008KT 9SM FEW014 SCT019 BKN025 13/10 A2988 RMK AO1 PRESRR SLP121
SPECI CYNL 211624Z AUTO 30008KT 9SM FEW012 SCT017 BKN037 13/10 A2988 RMK AO1 PRESRR SLP121
SPECI CYNL 211620Z AUTO 30009KT 9SM FEW012 SCT017 BKN025 13/10 A2988 RMK AO1 PRESRR SLP120
SPECI CYNL 211618Z AUTO 30008KT 9SM FEW012 SCT017 BKN024 13/10 A2988 RMK AO1 PRESRR SLP120
SPECI CYNL 211616Z AUTO 31007KT 9SM SCT012 BKN028 13/10 A2988 RMK AO1 PRESRR SLP120
METAR CYNL 211600Z AUTO 32005KT 9SM FEW009 SCT016 BKN037 13/11 A2987 RMK AO1 PRESRR SLP118
SPECI CYNL 211554Z AUTO 31005KT 9SM FEW008 SCT011 BKN030 12/10 A2987 RMK AO1 PRESRR SLP118
SPECI CYNL 211548Z AUTO 33005KT 9SM FEW008 SCT011 BKN028 12/10 A2987 RMK AO1 PRESRR SLP117
SPECI CYNL 211546Z AUTO 32004KT 9SM FEW007 SCT011 BKN018 12/10 A2987 RMK AO1 PRESRR SLP117
SPECI CYNL 211543Z AUTO 32005KT 4SM FEW007 SCT010 BKN012 12/10 A2987 RMK AO1 PRESRR SLP117
SPECI CYNL 211542Z AUTO 32006KT 1 1/2SM FEW007 SCT010 BKN012 12/11 A2987 RMK AO1 PRESRR SLP117
SPECI CYNL 211540Z AUTO 31006KT 1SM FEW007 SCT010 BKN012 12/11 A2987 RMK AO1 PRESRR SLP117
SPECI CYNL 211539Z AUTO 33005KT 1 1/2SM FEW007 SCT010 BKN012 12/11 A2987 RMK AO1 PRESRR SLP117
SPECI CYNL 211536Z AUTO 35006KT 2SM FEW007 SCT010 BKN012 12/11 A2987 RMK AO1 PRESRR SLP116
SPECI CYNL 211535Z AUTO 35006KT 3SM BKN009 BKN018 12/11 A2987 RMK AO1 PRESRR SLP116
SPECI CYNL 211522Z AUTO 34006KT 7SM FEW007 SCT009 BKN012 12/10 A2986 RMK AO1 PRESRR SLP113
SPECI CYNL 211521Z AUTO 34005KT 3SM FEW007 SCT009 BKN015 12/10 A2986 RMK AO1 PRESRR SLP113
SPECI CYNL 211520Z AUTO 34004KT 2SM FEW007 SCT009 BKN015 12/11 A2986 RMK AO1 PRESRR SLP112
SPECI CYNL 211518Z AUTO 32006KT 1 1/2SM FEW007 BKN009 BKN016 12/10 A2986 RMK AO1 PRESRR SLP112
SPECI CYNL 211515Z AUTO 32006KT 2 1/2SM FEW007 BKN009 BKN015 12/10 A2985 RMK AO1 PRESRR SLP111
SPECI CYNL 211513Z AUTO 33006KT 7SM FEW007 BKN009 BKN013 12/10 A2985 RMK AO1 PRESRR SLP111
SPECI CYNL 211508Z AUTO 35006KT 9SM FEW007 SCT009 BKN012 12/10 A2985 RMK AO1 PRESRR SLP110
METAR CYNL 211500Z AUTO 33005KT 9SM SCT007 BKN015 OVC026 12/11 A2985 RMK AO1 PRESRR SLP110
SPECI CYNL 211459Z AUTO 33006KT 9SM SCT007 BKN015 OVC025 12/10 A2985 RMK AO1 PRESRR SLP110
SPECI CYNL 211453Z AUTO 33007KT 9SM SCT007 BKN010 BKN013 12/10 A2985 RMK AO1 PRESRR SLP109
SPECI CYNL 211451Z AUTO 33007KT 9SM SCT007 BKN009 OVC016 12/10 A2985 RMK AO1 PRESRR SLP109
SPECI CYNL 211443Z AUTO 34006KT 4SM SCT007 BKN012 OVC016 12/11 A2984 RMK AO1 PRESRR SLP108
SPECI CYNL 211442Z AUTO 34005KT 2SM SCT007 BKN012 BKN016 12/11 A2984 RMK AO1 PRESRR SLP107
SPECI CYNL 211441Z AUTO 33005KT 1 1/2SM SCT007 BKN012 BKN016 12/11 A2984 RMK AO1 PRESRR SLP107
SPECI CYNL 211440Z AUTO 33006KT 1 1/4SM SCT007 BKN012 BKN015 12/11 A2984 RMK AO1 PRESRR SLP107
SPECI CYNL 211439Z AUTO 33006KT 1 3/4SM BKN007 BKN015 12/11 A2984 RMK AO1 PRESRR SLP107
SPECI CYNL 211438Z AUTO 33005KT 3SM BKN008 BKN012 12/11 A2984 RMK AO1 PRESRR SLP107
SPECI CYNL 211423Z AUTO 32004KT 9SM FEW008 BKN012 12/11 A2983 RMK AO1 PRESRR SLP104
SPECI CYNL 211410Z AUTO 32004KT 9SM SCT007 BKN062 12/11 A2983 RMK AO1 PRESRR SLP103
SPECI CYNL 211405Z AUTO 31005KT 9SM SCT007 BKN010 12/10 A2982 RMK AO1 PRESRR SLP102
METAR CYNL 211400Z AUTO 32003KT 9SM BKN007 BKN013 12/11 A2982 RMK AO1 PRESRR SLP101
SPECI CYNL 211349Z AUTO 32005KT 9SM BKN007 OVC013 11/11 A2982 RMK AO1 SLP100
SPECI CYNL 211335Z AUTO 31005KT 9SM SCT007 BKN010 OVC014 11/11 A2982 RMK AO1 SLP099
SPECI CYNL 211334Z AUTO 31005KT 9SM SCT007 BKN009 BKN012 11/11 A2981 RMK AO1 SLP099
SPECI CYNL 211333Z AUTO 31005KT 9SM SCT007 BKN010 BKN013 11/11 A2981 RMK AO1 SLP098
SPECI CYNL 211309Z AUTO 29006KT 4SM FEW005 BKN007 BKN009 11/11 A2980 RMK AO1 SLP095
SPECI CYNL 211307Z AUTO 27003KT 2SM SCT005 BKN009 OVC013 11/11 A2980 RMK AO1 SLP095
SPECI CYNL 211305Z AUTO 27004KT 1 1/2SM SCT005 BKN008 OVC012 11/11 A2980 RMK AO1 SLP095
SPECI CYNL 211304Z AUTO 27004KT 2SM SCT005 BKN006 BKN011 11/11 A2980 RMK AO1 SLP095
METAR CYNL 211300Z AUTO 27003KT 4SM SCT005 BKN008 OVC011 11/11 A2980 RMK AO1 SLP094
SPECI CYNL 211258Z AUTO 27004KT 3SM FEW004 SCT006 BKN008 11/11 A2980 RMK AO1 SLP094
SPECI CYNL 211257Z AUTO 27004KT 2 1/2SM SCT004 BKN008 OVC012 11/11 A2980 RMK AO1 SLP094
SPECI CYNL 211255Z AUTO 27004KT 2SM FEW004 SCT008 BKN011 11/11 A2980 RMK AO1 SLP094
SPECI CYNL 211253Z AUTO 26004KT 1 1/2SM FEW004 SCT008 BKN011 11/11 A2980 RMK AO1 SLP094
SPECI CYNL 211252Z AUTO 26005KT 1 1/4SM FEW004 SCT008 BKN011 11/11 A2980 RMK AO1 SLP094
SPECI CYNL 211249Z AUTO 26003KT 1SM VV009 11/11 A2980 RMK AO1 SLP094
SPECI CYNL 211245Z AUTO 26003KT 1 1/4SM FEW005 BKN011 OVC020 11/10 A2980 RMK AO1 SLP093
SPECI CYNL 211243Z AUTO 26005KT 1 1/2SM FEW005 BKN011 OVC020 11/10 A2980 RMK AO1 SLP093
SPECI CYNL 211242Z AUTO 26004KT 1 1/4SM FEW005 SCT011 BKN015 11/10 A2980 RMK AO1 SLP093
SPECI CYNL 211238Z AUTO 26004KT 1 3/4SM VV012 11/10 A2980 RMK AO1 SLP093
SPECI CYNL 211237Z AUTO 26004KT 2SM VV012 11/10 A2980 RMK AO1 SLP093
SPECI CYNL 211236Z AUTO 26003KT 2 1/2SM FEW005 SCT012 BKN016 11/10 A2980 RMK AO1 SLP093
SPECI CYNL 211234Z AUTO 26004KT 3SM FEW005 SCT012 BKN015 11/10 A2980 RMK AO1 SLP093
SPECI CYNL 211233Z AUTO 26004KT 2 1/2SM FEW005 BKN014 BKN020 11/10 A2979 RMK AO1 SLP092
SPECI CYNL 211227Z AUTO 25004KT 4SM FEW005 SCT016 OVC021 11/10 A2979 RMK AO1 SLP092
SPECI CYNL 211226Z AUTO 25004KT 3SM VV019 11/10 A2979 RMK AO1 SLP092
SPECI CYNL 211222Z AUTO 25006KT 2SM VV020 11/10 A2979 RMK AO1 SLP091
SPECI CYNL 211221Z AUTO 25006KT 1 1/2SM VV019 11/10 A2979 RMK AO1 SLP091
SPECI CYNL 211218Z AUTO 25006KT 1 1/4SM VV019 11/10 A2979 RMK AO1 SLP091
SPECI CYNL 211216Z AUTO 25005KT 1 1/2SM VV019 11/10 A2979 RMK AO1 SLP091
SPECI CYNL 211214Z AUTO 25006KT 1 1/4SM VV021 11/10 A2979 RMK AO1 SLP091
SPECI CYNL 211210Z AUTO 25006KT 1 1/2SM VV020 11/10 A2979 RMK AO1 SLP090
SPECI CYNL 211208Z AUTO 25005KT 2 1/2SM VV016 11/10 A2979 RMK AO1 SLP090
SPECI CYNL 211206Z AUTO 25005KT 2SM VV011 11/10 A2979 RMK AO1 SLP090
SPECI CYNL 211205Z AUTO 25005KT 1 3/4SM SCT006 BKN009 OVC012 11/10 A2979 RMK AO1 SLP090
SPECI CYNL 211203Z AUTO 25006KT 2 1/2SM SCT006 BKN009 OVC010 11/10 A2979 RMK AO1 SLP090
METAR CYNL 211200Z AUTO 25006KT 2SM VV010 10/10 A2979 RMK AO1 SLP090
SPECI CYNL 211158Z AUTO 25005KT 2SM VV010 10/10 A2979 RMK AO1 SLP089
SPECI CYNL 211155Z AUTO 25006KT 2SM VV007 10/10 A2979 RMK AO1 SLP089
SPECI CYNL 211152Z AUTO 25007KT 1 1/2SM VV007 10/10 A2978 RMK AO1 SLP089
SPECI CYNL 211150Z AUTO 25006KT 1 1/4SM VV008 10/10 A2978 RMK AO1 SLP088
SPECI CYNL 211149Z AUTO 25006KT 1 1/2SM SCT006 BKN010 OVC013 10/10 A2978 RMK AO1 SLP088
SPECI CYNL 211147Z AUTO 25005KT 1 3/4SM SCT006 BKN009 OVC012 10/10 A2978 RMK AO1 SLP088
SPECI CYNL 211140Z AUTO 25006KT 2 1/2SM SCT006 BKN010 OVC013 10/10 A2978 RMK AO1 SLP087
SPECI CYNL 211138Z AUTO 25007KT 3SM SCT006 BKN010 OVC013 10/10 A2978 RMK AO1 SLP087
SPECI CYNL 211135Z AUTO 25005KT 2SM SCT006 BKN010 OVC014 10/10 A2978 RMK AO1 SLP086
SPECI CYNL 211134Z AUTO 26005KT 2SM FEW006 SCT008 BKN009 10/10 A2978 RMK AO1 SLP086
SPECI CYNL 211132Z AUTO 25007KT 1 3/4SM FEW006 SCT009 OVC013 10/10 A2978 RMK AO1 SLP086
SPECI CYNL 211128Z AUTO 25006KT 2SM FEW006 SCT009 OVC013 10/10 A2978 RMK AO1 SLP086
SPECI CYNL 211127Z AUTO 25006KT 2SM VV012 10/10 A2978 RMK AO1 SLP086
SPECI CYNL 211117Z AUTO 25006KT 1 1/2SM VV011 10/10 A2977 RMK AO1 SLP085
SPECI CYNL 211116Z AUTO 25006KT 1 1/4SM VV011 10/10 A2977 RMK AO1 SLP085
SPECI CYNL 211113Z AUTO 25006KT 1 1/2SM VV012 10/10 A2977 RMK AO1 SLP085
SPECI CYNL 211111Z AUTO 25006KT 1 1/4SM VV012 10/10 A2977 RMK AO1 SLP085
METAR CYNL 211100Z AUTO 25007KT 1 3/4SM VV014 10/10 A2977 RMK AO1 SLP084
SPECI CYNL 211059Z AUTO 25007KT 1 1/2SM VV014 10/10 A2977 RMK AO1 SLP084
SPECI CYNL 211058Z AUTO 25007KT 1 1/4SM VV013 10/10 A2977 RMK AO1 SLP084
SPECI CYNL 211055Z AUTO 25008KT 1 1/2SM VV010 10/10 A2977 RMK AO1 SLP083
SPECI CYNL 211041Z AUTO 25006KT 1 3/4SM VV009 10/10 A2977 RMK AO1 SLP083
SPECI CYNL 211040Z AUTO 25007KT 2SM FEW007 BKN011 OVC072 10/10 A2977 RMK AO1 SLP083
SPECI CYNL 211038Z AUTO 25007KT 4SM FEW007 BKN010 OVC072 10/10 A2977 RMK AO1 SLP083
SPECI CYNL 211032Z AUTO 25007KT 3SM OVC010 10/10 A2977 RMK AO1 SLP083
SPECI CYNL 211029Z AUTO 25007KT 2SM VV011 10/10 A2977 RMK AO1 SLP082
SPECI CYNL 211014Z AUTO 25007KT 1 3/4SM VV010 10/10 A2976 RMK AO1 SLP082
SPECI CYNL 211012Z AUTO 25008KT 1 3/4SM VV009 10/10 A2976 RMK AO1 SLP082
SPECI CYNL 211011Z AUTO 25007KT 2SM VV009 10/09 A2976 RMK AO1 SLP082
SPECI CYNL 211008Z AUTO 25007KT 1 1/2SM VV009 10/09 A2976 RMK AO1 SLP081
SPECI CYNL 211007Z AUTO 25007KT 1 1/4SM VV009 10/09 A2976 RMK AO1 SLP081
METAR CYNL 211000Z AUTO 25008KT 1 3/4SM VV010 10/09 A2976 RMK AO1 SLP081
SPECI CYNL 210958Z AUTO 26008KT 1 1/2SM VV010 10/09 A2976 RMK AO1 SLP079
SPECI CYNL 210955Z AUTO 25008KT 1 1/2SM VV009 10/09 A2976 RMK AO1 SLP079
SPECI CYNL 210953Z AUTO 25007KT 1 3/4SM VV010 10/09 A2976 RMK AO1 SLP079
SPECI CYNL 210944Z AUTO 25008KT 2SM FEW006 BKN012 BKN062 10/09 A2976 RMK AO1 SLP079
SPECI CYNL 210943Z AUTO 25008KT 2 1/2SM VV012 10/09 A2976 RMK AO1 SLP079
SPECI CYNL 210939Z AUTO 25007KT 3SM VV012 10/09 A2976 RMK AO1 SLP079
SPECI CYNL 210926Z AUTO 25005KT 9SM FEW011 SCT015 BKN021 10/09 A2976 RMK AO1 SLP079
SPECI CYNL 210925Z AUTO 25004KT 9SM FEW011 SCT015 BKN062 10/09 A2976 RMK AO1 SLP078
SPECI CYNL 210908Z AUTO 26006KT 3SM FEW008 BKN022 OVC033 10/09 A2976 RMK AO1 SLP078
SPECI CYNL 210906Z AUTO 25007KT 2 1/2SM VV020 10/09 A2976 RMK AO1 SLP078
SPECI CYNL 210904Z AUTO 25007KT 3SM VV020 10/09 A2976 RMK AO1 SLP078
SPECI CYNL 210902Z AUTO 25005KT 2 1/2SM VV020 10/09 A2976 RMK AO1 SLP078
METAR CYNL 210900Z AUTO 25005KT 4SM VV020 10/09 A2976 RMK AO1 SLP078
SPECI CYNL 210853Z AUTO 25007KT 6SM FEW008 BKN024 10/09 A2976 RMK AO1 SLP078
SPECI CYNL 210846Z AUTO 26008KT 9SM FEW008 SCT024 BKN043 10/09 A2976 RMK AO1 SLP078
SPECI CYNL 210826Z AUTO 26006KT 9SM SCT024 11/08 A2976 RMK AO1 SLP076
SPECI CYNL 210820Z AUTO 26009KT 9SM BKN024 11/08 A2976 RMK AO1 SLP075
SPECI CYNL 210806Z AUTO 26004KT 9SM SCT025 BKN029 BKN050 11/08 A2975 RMK AO1 SLP073
METAR CYNL 210800Z AUTO 25005KT 9SM SCT026 BKN035 BKN050 11/08 A2975 RMK AO1 SLP073
METAR CYNL 210700Z AUTO 25004KT 9SM FEW042 11/08 A2975 RMK AO1 SLP070
METAR CYNL 210600Z AUTO 23003KT 9SM BKN044 11/08 A2974 RMK AO1 SLP068
METAR CYNL 210500Z AUTO 26004KT 9SM CLR 11/08 A2972 RMK AO1 SLP066
METAR CYNL 210400Z AUTO 26007KT 9SM FEW028 SCT088 12/07 A2972 RMK AO1 SLP063
METAR CYNL 210300Z AUTO 24004KT 9SM BKN088 12/08 A2972 RMK AO1 SLP065
METAR CYNL 210200Z AUTO 26005KT 9SM SCT062 BKN076 12/08 A2970 RMK AO1 SLP060
METAR CYNL 210100Z AUTO 29008KT 9SM SCT064 12/08 A2970 RMK AO1 SLP059
METAR CYNL 210000Z AUTO 27011G19KT 9SM FEW018 SCT056 13/08 A2969 RMK AO1 PRESRR SLP056
METAR CYNL 202300Z AUTO 30013G20KT 9SM CLR 13/08 A2967 RMK AO1 SLP048
METAR CYNL 202200Z AUTO 30010G22KT 9SM FEW072 15/06 A2965 RMK AO1 SLP040
SPECI CYNL 202142Z AUTO 30012G19KT 9SM CLR 15/04 A2964 RMK AO1 WSHFT (21)42 SLP038
METAR CYNL 202100Z AUTO 27019G26KT 9SM CLR 16/03 A2964 RMK AO1 SLP038
METAR CYNL 202000Z AUTO 28011G22KT 9SM CLR 17/03 A2963 RMK AO1 SLP034
METAR CYNL 201900Z AUTO 26009G19KT 9SM FEW037 16/06 A2962 RMK AO1 SLP030
METAR CYNL 201800Z AUTO 27008G18KT 9SM FEW028 OVC054 13/08 A2962 RMK AO1 SLP034
SPECI CYNL 201709Z AUTO 28005KT 9SM SCT020 BKN034 12/09 A2962 RMK AO1 SLP033
METAR CYNL 201700Z AUTO 28007KT 4SM BKN021 BKN056 12/09 A2962 RMK AO1 SLP032
SPECI CYNL 201659Z AUTO 27006KT 5SM BKN021 BKN056 12/09 A2961 RMK AO1 SLP031
SPECI CYNL 201657Z AUTO 26008KT 9SM SCT021 BKN027 BKN056 12/09 A2961 RMK AO1 SLP030
SPECI CYNL 201656Z AUTO 26007KT 9SM BKN022 13/09 A2961 RMK AO1 SLP030
SPECI CYNL 201651Z AUTO 26007KT 9SM SCT022 BKN028 13/08 A2961 RMK AO1 SLP029
SPECI CYNL 201649Z AUTO 28009KT 9SM SCT022 BKN036 13/08 A2961 RMK AO1 SLP029
SPECI CYNL 201648Z AUTO 28008G17KT 9SM SCT022 BKN028 13/08 A2961 RMK AO1 SLP029
SPECI CYNL 201640Z AUTO 28011G17KT 9SM SCT023 BKN034 13/08 A2961 RMK AO1 SLP028
SPECI CYNL 201638Z AUTO 28012G18KT 9SM BKN022 13/08 A2961 RMK AO1 SLP028
SPECI CYNL 201635Z AUTO 28010G18KT 9SM SCT021 BKN026 13/08 A2961 RMK AO1 SLP028
SPECI CYNL 201630Z AUTO 27011G18KT 9SM FEW014 BKN022 13/08 A2961 RMK AO1 SLP027
SPECI CYNL 201626Z AUTO 28011G18KT 9SM FEW014 SCT021 BKN028 13/08 A2961 RMK AO1 SLP028
SPECI CYNL 201613Z AUTO 27011KT 9SM FEW014 BKN020 13/08 A2961 RMK AO1 SLP029
SPECI CYNL 201612Z AUTO 28010KT 9SM FEW014 SCT020 BKN029 13/09 A2961 RMK AO1 SLP029
SPECI CYNL 201611Z AUTO 29008KT 9SM FEW014 BKN020 13/09 A2961 RMK AO1 SLP029
SPECI CYNL 201608Z AUTO 28008KT 9SM FEW014 SCT020 BKN026 12/09 A2961 RMK AO1 SLP030
SPECI CYNL 201607Z AUTO 28008KT 9SM FEW014 BKN021 12/09 A2961 RMK AO1 SLP030
SPECI CYNL 201603Z AUTO 26005KT 9SM FEW014 SCT020 BKN027 12/09 A2961 RMK AO1 SLP031
SPECI CYNL 201601Z AUTO 27006KT 9SM FEW014 BKN021 BKN054 12/09 A2962 RMK AO1 SLP031
METAR CYNL 201600Z AUTO 27006KT 9SM FEW015 SCT021 BKN027 12/09 A2962 RMK AO1 SLP031
SPECI CYNL 201558Z AUTO 27005KT 9SM FEW015 SCT022 BKN027 12/09 A2962 RMK AO1 SLP031
SPECI CYNL 201552Z AUTO 28006KT 9SM FEW015 BKN021 BKN040 11/09 A2961 RMK AO1 SLP032
SPECI CYNL 201543Z AUTO 27007G16KT 6SM FEW015 SCT019 BKN025 11/09 A2961 RMK AO1 SLP031
SPECI CYNL 201540Z AUTO 28010G16KT 3SM FEW014 SCT018 BKN039 11/09 A2961 RMK AO1 SLP031
SPECI CYNL 201538Z AUTO 26009G16KT 2 1/2SM SCT016 BKN039 11/09 A2961 RMK AO1 SLP031
METAR CYNL 201500Z AUTO 27005G16KT 9SM FEW013 SCT018 11/09 A2961 RMK AO1 SLP031
SPECI CYNL 201412Z AUTO 27010G16KT 9SM FEW009 SCT015 BKN031 11/09 A2960 RMK AO1 SLP026
SPECI CYNL 201409Z AUTO 27009G16KT 9SM SCT009 BKN029 11/09 A2960 RMK AO1 SLP025
SPECI CYNL 201405Z AUTO 27010KT 7SM SCT009 BKN016 BKN036 11/09 A2960 RMK AO1 SLP025
SPECI CYNL 201404Z AUTO 27009G15KT 7SM BKN009 BKN024 11/09 A2960 RMK AO1 SLP025
SPECI CYNL 201402Z AUTO 27008G15KT 9SM SCT009 BKN015 BKN022 11/09 A2960 RMK AO1 SLP025
METAR CYNL 201400Z AUTO 27009G15KT 8SM BKN009 OVC025 11/09 A2960 RMK AO1 SLP025
SPECI CYNL 201359Z AUTO 26009KT 7SM BKN009 BKN022 OVC027 11/09 A2960 RMK AO1 SLP024
SPECI CYNL 201342Z AUTO 26008KT 5SM FEW008 BKN010 OVC014 11/09 A2959 RMK AO1 SLP020
SPECI CYNL 201323Z AUTO 25007KT 9SM SCT011 BKN013 BKN030 11/09 A2959 RMK AO1 SLP019
METAR CYNL 201300Z AUTO 25008KT 9SM SCT031 BKN094 11/09 A2959 RMK AO1 SLP019
SPECI CYNL 201224Z AUTO 25008KT 9SM FEW008 11/09 A2958 RMK AO1 SLP016
METAR CYNL 201200Z AUTO 25007KT 9SM FEW010 10/09 A2958 RMK AO1 SLP016
METAR CYNL 201100Z AUTO 25006KT 9SM FEW011 BKN045 BKN068 11/09 A2958 RMK AO1 SLP011
SPECI CYNL 201044Z AUTO 25005KT 9SM SCT027 BKN068 11/09 A2958 RMK AO1 SLP012
SPECI CYNL 201024Z AUTO 26004KT 9SM BKN025 OVC072 11/09 A2958 RMK AO1 SLP012
SPECI CYNL 201012Z AUTO 26004KT 9SM BKN023 OVC072 11/09 A2957 RMK AO1 SLP011
METAR CYNL 201000Z AUTO 25004KT 9SM FEW021 BKN072 10/09 A2957 RMK AO1 SLP010
METAR CYNL 200900Z AUTO 26004KT 9SM SCT072 10/09 A2957 RMK AO1 SLP012
METAR CYNL 200800Z AUTO 24004KT 9SM SCT072 10/09 A2958 RMK AO1 SLP015
METAR CYNL 200700Z AUTO 24004KT 9SM FEW033 BKN072 10/08 A2959 RMK AO1 SLP016
METAR CYNL 200600Z AUTO 23002KT 9SM BKN068 10/09 A2959 RMK AO1 SLP020
METAR CYNL 200500Z AUTO 00000KT 9SM FEW064 11/09 A2959 RMK AO1 SLP019
METAR CYNL 200400Z AUTO 00000KT 9SM BKN041 BKN054 11/09 A2960 RMK AO1 SLP022
METAR CYNL 200300Z AUTO 33003KT 9SM BKN034 12/08 A2959 RMK AO1 SLP020
METAR CYNL 200200Z AUTO 32005KT 9SM CLR 14/09 A2958 RMK AO1 SLP013
METAR CYNL 200100Z AUTO 28005KT 9SM FEW041 SCT076 16/08 A2956 RMK AO1 SLP006
METAR CYNL 200000Z AUTO 11004KT 070V150 9SM FEW110 18/11 A2956 RMK AO1 SLP002
METAR CYNL 192300Z AUTO 31003KT 9SM FEW027 18/11 A2957 RMK AO1 SLP005
METAR CYNL 192200Z AUTO 28004KT 9SM FEW190 17/12 A2957 RMK AO1 SLP008
METAR CYNL 192100Z AUTO 24008KT 9SM FEW048 16/10 A2957 RMK AO1 SLP009
METAR CYNL 192000Z AUTO 21007KT 9SM FEW029 SCT094 17/11 A2956 RMK AO1 SLP002
SPECI CYNL 191928Z AUTO 19006KT 9SM FEW017 SCT022 BKN190 17/12 A2956 RMK AO1 SLP001
SPECI CYNL 191926Z AUTO 19006KT 9SM FEW017 SCT022 BKN029 17/12 A2956 RMK AO1 SLP001
SPECI CYNL 191904Z AUTO 19006KT 9SM SCT014 BKN024 16/12 A2956 RMK AO1 SLP004
SPECI CYNL 191903Z AUTO 19008KT 9SM SCT014 BKN027 16/12 A2957 RMK AO1 SLP004
METAR CYNL 191900Z AUTO 19007KT 9SM BKN014 16/13 A2957 RMK AO1 SLP004
SPECI CYNL 191858Z AUTO 19008KT 9SM BKN014 16/12 A2956 RMK AO1 SLP004
SPECI CYNL 191856Z AUTO 19006KT 9SM SCT012 BKN016 15/12 A2956 RMK AO1 SLP005
SPECI CYNL 191854Z AUTO 20005KT 9SM BKN013 15/13 A2957 RMK AO1 SLP005
SPECI CYNL 191853Z AUTO 21006KT 9SM SCT012 BKN015 15/12 A2957 RMK AO1 SLP005
SPECI CYNL 191844Z AUTO 19008KT 9SM BKN013 BKN017 15/12 A2957 RMK AO1 SLP005
SPECI CYNL 191838Z AUTO 20005KT 9SM SCT012 BKN016 BKN110 15/12 A2956 RMK AO1 SLP003
SPECI CYNL 191837Z AUTO 19005KT 9SM BKN012 BKN110 15/12 A2956 RMK AO1 SLP003
SPECI CYNL 191831Z AUTO 19005KT 9SM SCT012 BKN016 15/12 A2956 RMK AO1 SLP003
SPECI CYNL 191830Z AUTO 19005KT 9SM BKN013 15/12 A2956 RMK AO1 SLP003
SPECI CYNL 191828Z AUTO 20004KT 9SM SCT012 BKN016 15/12 A2956 RMK AO1 SLP003
SPECI CYNL 191825Z AUTO 20005KT 9SM BKN013 15/12 A2956 RMK AO1 SLP003
SPECI CYNL 191824Z AUTO 20005KT 9SM SCT012 BKN019 15/12 A2956 RMK AO1 SLP003
METAR CYNL 191800Z AUTO 19005KT 9SM SCT011 BKN200 14/12 A2956 RMK AO1 SLP004
SPECI CYNL 191703Z AUTO 21005KT 9SM FEW009 SCT056 14/13 A2957 RMK AO1 SLP007
METAR CYNL 191700Z AUTO 20004KT 9SM FEW056 SCT076 14/13 A2957 RMK AO1 SLP007
SPECI CYNL 191632Z AUTO 18002KT 8SM SCT006 BKN033 14/12 A2956 RMK AO1 PRESFR SLP005
SPECI CYNL 191631Z AUTO 19003KT 160V220 7SM SCT006 BKN014 14/12 A2956 RMK AO1 PRESFR SLP005
SPECI CYNL 191608Z AUTO 20005KT 9SM BKN006 BKN038 OVC050 14/13 A2957 RMK AO1 PRESFR SLP007
SPECI CYNL 191607Z AUTO 21004KT 9SM SCT006 BKN018 BKN039 14/13 A2957 RMK AO1 PRESFR SLP007
SPECI CYNL 191604Z AUTO 22004KT 7SM SCT006 BKN027 BKN039 14/13 A2957 RMK AO1 PRESFR SLP008
SPECI CYNL 191601Z AUTO 24003KT 6SM SCT006 BKN023 BKN040 14/13 A2957 RMK AO1 PRESFR SLP007
METAR CYNL 191600Z AUTO 23002KT 6SM SCT007 BKN025 BKN036 14/13 A2957 RMK AO1 PRESFR SLP007
SPECI CYNL 191557Z AUTO 20003KT 6SM FEW007 BKN024 BKN036 14/13 A2957 RMK AO1 SLP007
SPECI CYNL 191555Z AUTO 22002KT 5SM VV024 14/13 A2957 RMK AO1 SLP007
SPECI CYNL 191554Z AUTO 23004KT 5SM VV026 14/12 A2957 RMK AO1 SLP007
SPECI CYNL 191552Z AUTO 23003KT 5SM VV024 13/13 A2957 RMK AO1 SLP007
SPECI CYNL 191551Z AUTO 23002KT 5SM VV025 13/13 A2957 RMK AO1 SLP007
SPECI CYNL 191530Z AUTO 19003KT 4SM VV024 13/12 A2957 RMK AO1 SLP010
SPECI CYNL 191528Z AUTO 20004KT 170V230 4SM VV025 13/13 A2957 RMK AO1 SLP010
SPECI CYNL 191527Z AUTO 20004KT 170V240 4SM VV022 13/13 A2957 RMK AO1 SLP010
SPECI CYNL 191508Z AUTO 23005KT 6SM FEW009 SCT044 BKN060 13/13 A2959 RMK AO1 SLP014
SPECI CYNL 191507Z AUTO 23006KT 6SM VV029 13/12 A2959 RMK AO1 SLP015
METAR CYNL 191500Z AUTO 25007KT 5SM FEW045 SCT060 13/12 A2959 RMK AO1 SLP014
SPECI CYNL 191405Z AUTO 23006KT 4SM FEW009 SCT031 BKN054 14/12 A2960 RMK AO1 PRESRR SLP017
SPECI CYNL 191403Z AUTO 24007KT 3SM VV020 14/12 A2959 RMK AO1 PRESRR SLP017
SPECI CYNL 191402Z AUTO 24008KT 2 1/2SM VV020 14/12 A2959 RMK AO1 PRESRR SLP016
SPECI CYNL 191401Z AUTO 25008KT 2SM FEW011 SCT035 BKN052 14/12 A2959 RMK AO1 PRESRR SLP015
METAR CYNL 191400Z AUTO 25008KT 1 1/2SM FEW014 SCT032 BKN052 14/12 A2959 RMK AO1 PRESRR SLP015
SPECI CYNL 191357Z AUTO 23007KT 1 3/4SM FEW008 BKN052 14/12 A2960 RMK AO1 SLP017
SPECI CYNL 191356Z AUTO 22008KT 2SM FEW008 BKN052 14/12 A2961 RMK AO1 SLP018
SPECI CYNL 191339Z AUTO 24006KT 4SM FEW009 SCT037 BKN054 14/12 A2958 RMK AO1 SLP009
SPECI CYNL 191338Z AUTO 25005KT 3SM VV029 14/12 A2958 RMK AO1 SLP008
SPECI CYNL 191336Z AUTO 26005KT 3SM FEW008 BKN054 14/12 A2958 RMK AO1 SLP008
SPECI CYNL 191332Z AUTO 23007KT 3SM FEW032 BKN054 14/12 A2958 RMK AO1 SLP011
SPECI CYNL 191330Z AUTO 22007KT 2 1/2SM BKN054 14/12 A2959 RMK AO1 SLP011
METAR CYNL 191100Z AUTO 23003KT 9SM FEW076 13/12 A2959 RMK AO1 SLP011
METAR CYNL 191000Z AUTO 00000KT 9SM CLR 13/11 A2959 RMK AO1 SLP010
METAR CYNL 190900Z AUTO 18003KT 9SM FEW100 16/12 A2959 RMK AO1 SLP009
METAR CYNL 190800Z AUTO 14003KT 9SM SCT076 17/12 A2960 RMK AO1 SLP011
METAR CYNL 190700Z AUTO 18002KT 9SM SCT084 17/12 A2962 RMK AO1 SLP018
METAR CYNL 190600Z AUTO 16003KT 9SM FEW100 17/13 A2963 RMK AO1 SLP020
METAR CYNL 190500Z AUTO 00000KT 9SM FEW110 16/12 A2963 RMK AO1 SLP023
METAR CYNL 190400Z AUTO 12002KT 9SM FEW180 16/11 A2964 RMK AO1 SLP028
METAR CYNL 190300Z AUTO 07002KT 9SM FEW180 16/12 A2965 RMK AO1 SLP034
METAR CYNL 190200Z AUTO 07005KT 9SM CLR 19/12 A2966 RMK AO1 SLP034
METAR CYNL 190100Z AUTO 10003KT 9SM FEW062 20/12 A2967 RMK AO1 SLP036
METAR CYNL 190000Z AUTO 11006KT 9SM CLR 21/11 A2966 RMK AO1 SLP037
METAR CYNL 182300Z AUTO 11007KT 9SM FEW230 21/11 A2967 RMK AO1 SLP041
METAR CYNL 182200Z AUTO 11008KT 9SM FEW200 21/12 A2968 RMK AO1 SLP040
METAR CYNL 182100Z AUTO 12007KT 9SM FEW170 22/10 A2968 RMK AO1 SLP043
METAR CYNL 182000Z AUTO 15005KT 9SM FEW180 22/10 A2970 RMK AO1 SLP048
METAR CYNL 181900Z AUTO 00000KT 9SM FEW200 21/10 A2970 RMK AO1 SLP050
METAR CYNL 181800Z AUTO 15004KT 120V180 9SM CLR 20/11 A2972 RMK AO1 SLP054
METAR CYNL 181700Z AUTO 00000KT 9SM CLR 18/12 A2973 RMK AO1 SLP060
METAR CYNL 181600Z AUTO 17002KT 9SM CLR 16/13 A2974 RMK AO1 SLP067
METAR CYNL 181500Z AUTO 09002KT 9SM FEW006 15/13 A2975 RMK AO1 SLP069
SPECI CYNL 181442Z AUTO 06003KT 9SM SCT006 15/13 A2975 RMK AO1 SLP070
SPECI CYNL 181420Z AUTO 05002KT 9SM BKN006 15/13 A2975 RMK AO1 SLP071
SPECI CYNL 181409Z AUTO 10002KT 9SM FEW006 15/13 A2976 RMK AO1 SLP072
METAR CYNL 181400Z AUTO 00000KT 9SM CLR 15/13 A2976 RMK AO1 SLP073
METAR CYNL 181300Z AUTO 24002KT 9SM CLR 12/12 A2976 RMK AO1 SLP076
METAR CYNL 181200Z AUTO 00000KT 9SM CLR 12/11 A2975 RMK AO1 SLP072
METAR CYNL 181100Z AUTO 25003KT 9SM OVC110 13/12 A2975 RMK AO1 SLP070
METAR CYNL 181000Z AUTO 30003KT 9SM FEW074 BKN110 13/12 A2974 RMK AO1 SLP068
METAR CYNL 180900Z AUTO 28003KT 9SM FEW110 12/12 A2974 RMK AO1 SLP069
METAR CYNL 180800Z AUTO 30003KT 9SM FEW072 SCT110 13/12 A2974 RMK AO1 SLP067
METAR CYNL 180700Z AUTO 29004KT 9SM FEW082 BKN100 14/12 A2974 RMK AO1 SLP068
METAR CYNL 180600Z AUTO 30005KT 9SM FEW074 SCT110 BKN130 14/11 A2974 RMK AO1 SLP066
METAR CYNL 180500Z AUTO 31003KT 9SM BKN074 15/12 A2974 RMK AO1 SLP068
METAR CYNL 180400Z AUTO 32006KT 9SM SCT070 BKN110 15/11 A2974 RMK AO1 SLP066
METAR CYNL 180300Z AUTO 31007KT 9SM SCT074 15/11 A2973 RMK AO1 SLP065
METAR CYNL 180200Z AUTO 31007G17KT 9SM SCT052 16/11 A2972 RMK AO1 SLP061
METAR CYNL 180100Z AUTO 31008G16KT 9SM SCT056 16/12 A2971 RMK AO1 SLP057
METAR CYNL 180000Z AUTO 29007KT 9SM FEW062 SCT200 16/12 A2970 RMK AO1 SLP054
METAR CYNL 172300Z AUTO 28011G17KT 9SM FEW014 16/14 A2970 RMK AO1 SLP051
METAR CYNL 172200Z AUTO 28009G16KT 9SM FEW011 SCT017 BKN220 16/14 A2970 RMK AO1 SLP051
SPECI CYNL 172141Z AUTO 28010G19KT 9SM FEW012 SCT016 BKN032 16/14 A2969 RMK AO1 SLP049
SPECI CYNL 172139Z AUTO 28009G19KT 9SM FEW012 SCT016 BKN021 16/14 A2969 RMK AO1 SLP049
SPECI CYNL 172121Z AUTO 28009G16KT 3SM FEW015 SCT022 BKN033 16/14 A2969 RMK AO1 SLP048
SPECI CYNL 172119Z AUTO 28009G17KT 2 1/2SM FEW014 SCT020 BKN039 16/14 A2969 RMK AO1 SLP048
METAR CYNL 172100Z AUTO 28008G17KT 9SM FEW013 SCT021 17/15 A2968 RMK AO1 SLP046
SPECI CYNL 172051Z AUTO 28009G16KT 9SM FEW009 SCT014 BKN031 16/15 A2968 RMK AO1 SLP046
SPECI CYNL 172047Z AUTO 27011G18KT 9SM FEW009 SCT014 BKN021 16/14 A2968 RMK AO1 SLP046
SPECI CYNL 172041Z AUTO 26010G18KT 5SM SCT010 BKN015 BKN028 16/14 A2968 RMK AO1 SLP045
SPECI CYNL 172040Z AUTO 26011G18KT 2SM SCT010 BKN014 BKN028 16/14 A2968 RMK AO1 SLP045
SPECI CYNL 172037Z AUTO 27009G17KT 1SM SCT009 BKN015 BKN029 16/15 A2968 RMK AO1 SLP046
SPECI CYNL 172036Z AUTO 26009G17KT 1 1/2SM SCT010 BKN014 BKN160 16/15 A2968 RMK AO1 SLP045
SPECI CYNL 172035Z AUTO 26009G16KT 2SM SCT010 BKN014 BKN160 16/15 A2968 RMK AO1 SLP044
SPECI CYNL 172033Z AUTO 26009KT 5SM SCT010 BKN015 16/14 A2968 RMK AO1 SLP043
METAR CYNL 172000Z AUTO 26007G16KT 9SM FEW007 BKN012 BKN033 15/14 A2967 RMK AO1 SLP044
SPECI CYNL 171958Z AUTO 26008G16KT 9SM FEW006 BKN012 BKN033 15/14 A2967 RMK AO1 SLP044
SPECI CYNL 171952Z AUTO 26009G16KT 5SM FEW006 SCT011 BKN017 15/14 A2967 RMK AO1 SLP044
SPECI CYNL 171951Z AUTO 26008G15KT 2 1/2SM FEW006 SCT011 BKN017 15/14 A2967 RMK AO1 SLP044
SPECI CYNL 171949Z AUTO 26008KT 1 1/4SM FEW003 SCT009 BKN017 15/14 A2967 RMK AO1 SLP044
SPECI CYNL 171946Z AUTO 27009KT 3/4SM FEW006 SCT011 BKN016 15/14 A2967 RMK AO1 SLP044
SPECI CYNL 171942Z AUTO 27009KT 1 1/4SM FEW008 SCT011 BKN019 15/14 A2968 RMK AO1 SLP045
SPECI CYNL 171941Z AUTO 27010KT 1 1/2SM FEW008 SCT011 BKN015 15/14 A2968 RMK AO1 SLP046
SPECI CYNL 171939Z AUTO 25009KT 1 1/4SM FEW008 SCT011 BKN016 15/14 A2968 RMK AO1 SLP045
SPECI CYNL 171938Z AUTO 24008KT 1 1/2SM FEW008 SCT011 BKN016 15/14 A2968 RMK AO1 SLP045
SPECI CYNL 171937Z AUTO 24006KT 2SM FEW008 SCT011 BKN015 15/14 A2967 RMK AO1 SLP044
SPECI CYNL 171933Z AUTO 27003KT 4SM FEW008 BKN015 OVC023 15/14 A2967 RMK AO1 SLP043
SPECI CYNL 171932Z AUTO 26004KT 1 3/4SM FEW009 SCT015 OVC023 15/14 A2967 RMK AO1 SLP043
SPECI CYNL 171930Z AUTO 26006KT 1 1/4SM FEW009 SCT015 OVC023 15/14 A2967 RMK AO1 SLP043
SPECI CYNL 171929Z AUTO 26007KT 1 1/2SM FEW009 SCT015 OVC023 15/14 A2967 RMK AO1 SLP043
SPECI CYNL 171928Z AUTO 26006KT 1 1/2SM FEW010 SCT016 OVC023 15/14 A2967 RMK AO1 SLP043
SPECI CYNL 171926Z AUTO 26004KT 1 1/4SM FEW010 SCT016 BKN022 15/14 A2967 RMK AO1 SLP043
SPECI CYNL 171924Z AUTO 25005KT 2 1/2SM FEW010 SCT017 BKN022 15/14 A2967 RMK AO1 SLP043
SPECI CYNL 171904Z AUTO 24007KT 7SM SCT008 BKN017 BKN026 15/14 A2967 RMK AO1 SLP043
SPECI CYNL 171903Z AUTO 24008KT 7SM BKN008 BKN026 15/14 A2967 RMK AO1 SLP043
METAR CYNL 171900Z AUTO 24005KT 5SM SCT008 BKN017 BKN030 15/14 A2967 RMK AO1 SLP043
SPECI CYNL 171856Z AUTO 25004KT 4SM SCT008 BKN017 BKN030 15/14 A2967 RMK AO1 SLP043
SPECI CYNL 171855Z AUTO 26006KT 3SM BKN008 BKN022 OVC037 15/14 A2967 RMK AO1 SLP043
SPECI CYNL 171852Z AUTO 25005KT 1 3/4SM FEW006 BKN008 BKN019 15/14 A2967 RMK AO1 SLP044
SPECI CYNL 171851Z AUTO 25004KT 2 1/2SM FEW006 BKN008 BKN019 15/14 A2967 RMK AO1 SLP044
SPECI CYNL 171826Z AUTO 24006KT 3SM BKN006 OVC009 14/14 A2967 RMK AO1 SLP044
SPECI CYNL 171825Z AUTO 24005KT 2SM BKN006 BKN007 OVC009 14/14 A2967 RMK AO1 SLP044
SPECI CYNL 171824Z AUTO 25006KT 1 1/2SM BKN006 OVC009 14/14 A2967 RMK AO1 SLP044
SPECI CYNL 171819Z AUTO 26005KT 1 1/4SM BKN006 OVC009 14/14 A2967 RMK AO1 SLP045
SPECI CYNL 171817Z AUTO 25005KT 2 1/2SM BKN006 OVC010 14/14 A2967 RMK AO1 SLP045
SPECI CYNL 171812Z AUTO 26004KT 4SM BKN006 BKN008 OVC010 14/14 A2967 RMK AO1 SLP044
SPECI CYNL 171810Z AUTO 27004KT 2SM SCT006 BKN008 OVC010 14/14 A2967 RMK AO1 SLP044
SPECI CYNL 171809Z AUTO 26006KT 1 3/4SM SCT006 BKN008 OVC010 15/14 A2967 RMK AO1 SLP044
SPECI CYNL 171808Z AUTO 26006KT 2 1/2SM SCT006 BKN008 OVC010 15/14 A2967 RMK AO1 SLP044
SPECI CYNL 171801Z AUTO 26004KT 3SM OVC008 15/14 A2967 RMK AO1 SLP044
METAR CYNL 171800Z AUTO 26004KT 2 1/2SM BKN007 OVC010 15/14 A2967 RMK AO1 SLP044
METAR CYNL 171700Z AUTO 28008KT 6SM OVC008 15/13 A2967 RMK AO1 SLP043
METAR CYNL 171600Z AUTO 25006KT 9SM OVC008 14/13 A2966 RMK AO1 SLP042
METAR CYNL 171500Z AUTO 26006KT 9SM OVC008 14/12 A2966 RMK AO1 SLP039
SPECI CYNL 171411Z AUTO 27004KT 9SM BKN009 BKN018 OVC033 14/12 A2966 RMK AO1 SLP039
METAR CYNL 171400Z AUTO 27005KT 9SM SCT009 BKN016 BKN021 14/12 A2966 RMK AO1 SLP040
SPECI CYNL 171343Z AUTO 27006KT 9SM SCT007 BKN015 BKN020 13/12 A2966 RMK AO1 SLP038
SPECI CYNL 171339Z AUTO 27004KT 9SM SCT007 BKN010 OVC015 13/12 A2966 RMK AO1 SLP038
METAR CYNL 171300Z AUTO 25006KT 9SM OVC007 13/12 A2965 RMK AO1 SLP037
SPECI CYNL 171219Z AUTO 26005KT 4SM BKN007 BKN013 OVC044 14/13 A2966 RMK AO1 SLP037
SPECI CYNL 171213Z AUTO 26007KT 5SM SCT007 BKN011 BKN015 14/13 A2966 RMK AO1 SLP037
SPECI CYNL 171210Z AUTO 26006KT 5SM FEW007 SCT011 BKN015 14/13 A2966 RMK AO1 SLP037
SPECI CYNL 171209Z AUTO 27006KT 5SM FEW008 BKN013 BKN017 14/14 A2966 RMK AO1 SLP036
SPECI CYNL 171205Z AUTO 27006KT 4SM FEW007 SCT011 BKN015 14/14 A2966 RMK AO1 SLP036
METAR CYNL 171200Z AUTO 27005KT 4SM SCT007 BKN011 BKN022 14/14 A2966 RMK AO1 SLP036
SPECI CYNL 171156Z AUTO 27006KT 4SM SCT006 BKN010 BKN033 14/14 A2966 RMK AO1 SLP036
SPECI CYNL 171154Z AUTO 26005KT 4SM BKN008 BKN033 OVC044 14/14 A2966 RMK AO1 SLP036
SPECI CYNL 171153Z AUTO 26006KT 4SM SCT006 BKN010 BKN033 14/14 A2966 RMK AO1 SLP036
SPECI CYNL 171149Z AUTO 27006KT 4SM SCT006 BKN009 BKN017 14/14 A2966 RMK AO1 SLP036
SPECI CYNL 171148Z AUTO 27007KT 4SM SCT006 BKN010 BKN018 14/14 A2965 RMK AO1 SLP036
SPECI CYNL 171123Z AUTO 25005KT 3SM BKN007 BKN010 OVC014 15/14 A2966 RMK AO1 SLP036
SPECI CYNL 171122Z AUTO 25005KT 1 3/4SM BKN007 OVC012 15/14 A2966 RMK AO1 SLP036
SPECI CYNL 171120Z AUTO 26005KT 1 1/4SM BKN007 BKN010 OVC012 15/14 A2966 RMK AO1 SLP036
SPECI CYNL 171116Z AUTO 26004KT 2 1/2SM BKN007 OVC012 15/14 A2965 RMK AO1 SLP035
METAR CYNL 171100Z AUTO 27003KT 7SM BKN007 BKN018 OVC084 15/14 A2965 RMK AO1 SLP034
SPECI CYNL 171049Z AUTO 26005KT 7SM SCT008 BKN014 BKN024 15/14 A2965 RMK AO1 SLP032
SPECI CYNL 171032Z AUTO 26004KT 7SM SCT009 BKN018 BKN025 15/14 A2965 RMK AO1 SLP032
SPECI CYNL 171028Z AUTO 26005KT 7SM SCT008 BKN014 BKN018 15/14 A2965 RMK AO1 SLP032
SPECI CYNL 171023Z AUTO 26005KT 7SM BKN008 BKN013 OVC027 15/14 A2965 RMK AO1 SLP033
SPECI CYNL 171022Z AUTO 26006KT 7SM SCT008 BKN012 OVC027 15/14 A2965 RMK AO1 SLP033
SPECI CYNL 171012Z AUTO 25005KT 7SM BKN009 BKN011 OVC015 15/14 A2965 RMK AO1 SLP033
SPECI CYNL 171007Z AUTO 26004KT 6SM SCT008 BKN011 OVC015 15/14 A2965 RMK AO1 SLP032
METAR CYNL 171000Z AUTO 26005KT 8SM BKN008 BKN010 OVC013 15/14 A2965 RMK AO1 SLP032
SPECI CYNL 170956Z AUTO 27005KT 4SM SCT007 BKN009 OVC013 15/14 A2965 RMK AO1 SLP032
SPECI CYNL 170954Z AUTO 27005KT 2SM SCT007 BKN008 OVC012 15/14 A2965 RMK AO1 SLP033
SPECI CYNL 170953Z AUTO 28007KT 2 1/2SM SCT007 BKN011 OVC014 15/14 A2965 RMK AO1 SLP033
SPECI CYNL 170949Z AUTO 28007KT 7SM SCT007 BKN011 OVC014 15/14 A2965 RMK AO1 SLP032
SPECI CYNL 170916Z AUTO 27003KT 9SM BKN007 BKN110 15/14 A2965 RMK AO1 SLP032
SPECI CYNL 170914Z AUTO 28004KT 9SM SCT007 BKN019 BKN110 15/14 A2965 RMK AO1 SLP032
SPECI CYNL 170910Z AUTO 29005KT 8SM SCT008 BKN026 BKN110 15/14 A2965 RMK AO1 SLP032
METAR CYNL 170900Z AUTO 29003KT 9SM FEW008 SCT019 BKN110 15/14 A2965 RMK AO1 SLP032
SPECI CYNL 170850Z AUTO 30005KT 9SM SCT008 BKN110 15/14 A2965 RMK AO1 SLP032
SPECI CYNL 170843Z AUTO 29004KT 9SM SCT007 BKN015 BKN110 15/14 A2965 RMK AO1 SLP032
METAR CYNL 170800Z AUTO 30006KT 9SM OVC006 15/14 A2965 RMK AO1 SLP032
SPECI CYNL 170738Z AUTO 30004KT 9SM BKN006 BKN110 15/14 A2965 RMK AO1 SLP032
SPECI CYNL 170737Z AUTO 30005KT 9SM SCT006 BKN024 BKN110 15/14 A2965 RMK AO1 SLP032
SPECI CYNL 170702Z AUTO 30005KT 9SM FEW006 BKN100 14/13 A2966 RMK AO1 SLP034
METAR CYNL 170700Z AUTO 30004KT 9SM BKN100 14/13 A2966 RMK AO1 SLP034
METAR CYNL 170600Z AUTO 00000KT 9SM OVC100 14/13 A2965 RMK AO1 SLP034
METAR CYNL 170500Z AUTO 00000KT 9SM OVC098 14/13 A2966 RMK AO1 SLP035
METAR CYNL 170400Z AUTO 00000KT 9SM SCT110 14/12 A2966 RMK AO1 SLP036
METAR CYNL 170300Z AUTO 00000KT 9SM SCT021 15/12 A2967 RMK AO1 SLP039
SPECI CYNL 170258Z AUTO 12003KT 9SM SCT021 15/12 A2967 RMK AO1 SLP039
SPECI CYNL 170257Z AUTO 11003KT 9SM SCT021 BKN025 15/12 A2967 RMK AO1 SLP039
SPECI CYNL 170253Z AUTO 11003KT 9SM BKN021 15/12 A2967 RMK AO1 SLP040
METAR CYNL 170200Z AUTO 22004KT 9SM SCT094 16/12 A2967 RMK AO1 SLP038
METAR CYNL 170100Z AUTO 18004KT 9SM FEW084 18/14 A2967 RMK AO1 SLP038
METAR CYNL 170000Z AUTO 23002KT 9SM FEW030 SCT050 17/14 A2967 RMK AO1 SLP040
SPECI CYNL 162341Z AUTO 18003KT 3SM FEW002 SCT031 BKN040 17/13 A2968 RMK AO1 SLP042
SPECI CYNL 162340Z AUTO 19003KT 2 1/2SM FEW002 SCT031 BKN040 17/13 A2968 RMK AO1 SLP042
SPECI CYNL 162339Z AUTO 19003KT 1 1/2SM FEW002 SCT031 BKN040 17/13 A2968 RMK AO1 SLP042
SPECI CYNL 162336Z AUTO 17003KT 1 1/4SM FEW002 SCT031 BKN039 17/14 A2968 RMK AO1 SLP042
SPECI CYNL 162335Z AUTO 16004KT 2 1/2SM FEW002 SCT031 BKN039 17/13 A2968 RMK AO1 SLP041
SPECI CYNL 162334Z AUTO 16004KT 1SM FEW002 SCT031 BKN039 17/13 A2968 RMK AO1 SLP041
SPECI CYNL 162333Z AUTO 17007KT 3/4SM FEW002 SCT031 BKN039 17/13 A2968 RMK AO1 SLP041
SPECI CYNL 162332Z AUTO 17009KT 5/8SM FEW026 SCT031 BKN039 18/13 A2968 RMK AO1 SLP041
SPECI CYNL 162331Z AUTO 17008KT 3/4SM SCT032 BKN040 18/13 A2968 RMK AO1 SLP041
SPECI CYNL 162329Z AUTO 18006KT 1 3/4SM SCT036 BKN098 18/13 A2967 RMK AO1 SLP040
METAR CYNL 162300Z AUTO 16008KT 9SM FEW100 19/11 A2967 RMK AO1 SLP038
METAR CYNL 162200Z AUTO 15006KT 9SM FEW052 BKN064 19/11 A2967 RMK AO1 SLP037
METAR CYNL 162100Z AUTO 14008KT 9SM FEW034 SCT045 BKN076 19/11 A2968 RMK AO1 SLP040
METAR CYNL 162000Z AUTO 15006KT 9SM FEW070 SCT082 19/11 A2967 RMK AO1 SLP039
METAR CYNL 161900Z AUTO 15008KT 9SM FEW056 SCT072 19/10 A2967 RMK AO1 SLP039
METAR CYNL 161800Z AUTO 15009KT 9SM FEW043 SCT064 19/12 A2968 RMK AO1 SLP041
SPECI CYNL 161725Z AUTO 17009KT 9SM FEW022 SCT029 BKN042 18/12 A2968 RMK AO1 SLP044
SPECI CYNL 161721Z AUTO 18007KT 9SM SCT021 BKN028 17/13 A2968 RMK AO1 SLP044
SPECI CYNL 161720Z AUTO 18006KT 9SM FEW020 SCT027 BKN033 17/13 A2968 RMK AO1 SLP044
SPECI CYNL 161719Z AUTO 17007KT 9SM FEW021 BKN027 17/13 A2968 RMK AO1 SLP044
METAR CYNL 161700Z AUTO 12008KT 9SM FEW042 19/13 A2968 RMK AO1 SLP043
METAR CYNL 161600Z AUTO 14004KT 9SM FEW011 SCT068 17/14 A2969 RMK AO1 SLP046
SPECI CYNL 161536Z AUTO 15009KT 9SM SCT011 BKN031 17/14 A2970 RMK AO1 SLP048
SPECI CYNL 161533Z AUTO 14005KT 9SM BKN011 17/15 A2970 RMK AO1 SLP048
SPECI CYNL 161532Z AUTO 14006KT 9SM SCT011 BKN017 17/15 A2970 RMK AO1 SLP048
SPECI CYNL 161520Z AUTO 13007KT 9SM SCT010 BKN031 17/14 A2970 RMK AO1 SLP049
METAR CYNL 161500Z AUTO 13007KT 9SM BKN010 OVC012 17/15 A2970 RMK AO1 SLP050
SPECI CYNL 161415Z AUTO 12004KT 9SM SCT010 BKN013 17/15 A2970 RMK AO1 SLP050
METAR CYNL 161400Z AUTO 12005KT 9SM SCT011 BKN020 17/15 A2971 RMK AO1 SLP052
SPECI CYNL 161359Z AUTO 12005KT 9SM SCT011 BKN020 17/15 A2971 RMK AO1 SLP051
SPECI CYNL 161358Z AUTO 12005KT 9SM BKN011 OVC020 16/15 A2971 RMK AO1 SLP051
SPECI CYNL 161341Z AUTO 12006KT 9SM SCT011 OVC019 16/15 A2971 RMK AO1 SLP052
SPECI CYNL 161311Z AUTO 09004KT 3SM BKN012 16/15 A2971 RMK AO1 SLP054
SPECI CYNL 161310Z AUTO 09004KT 2 1/2SM BKN012 16/15 A2971 RMK AO1 SLP053
SPECI CYNL 161309Z AUTO 08004KT 3SM BKN012 16/14 A2971 RMK AO1 SLP054
SPECI CYNL 161308Z AUTO 09004KT 2 1/2SM SCT012 BKN030 16/14 A2971 RMK AO1 SLP054
SPECI CYNL 161307Z AUTO 09004KT 3SM SCT012 BKN030 16/15 A2971 RMK AO1 SLP054
METAR CYNL 161300Z AUTO 09004KT 2 1/2SM FEW012 SCT030 16/15 A2971 RMK AO1 SLP054
SPECI CYNL 161242Z AUTO 07003KT 2 1/2SM FEW110 16/14 A2971 RMK AO1 SLP051
SPECI CYNL 161240Z AUTO 08004KT 3SM FEW110 16/14 A2971 RMK AO1 SLP052
SPECI CYNL 161224Z AUTO 08003KT 2 1/2SM FEW023 16/14 A2971 RMK AO1 SLP054
SPECI CYNL 161222Z AUTO 08004KT 3SM FEW023 16/14 A2971 RMK AO1 SLP054
SPECI CYNL 161213Z AUTO 08003KT 2 1/2SM FEW090 16/14 A2972 RMK AO1 SLP056
METAR CYNL 161200Z AUTO 09002KT 3SM FEW017 16/14 A2972 RMK AO1 SLP055
METAR CYNL 161100Z AUTO 08003KT 5SM FEW023 SCT100 15/14 A2972 RMK AO1 SLP053
METAR CYNL 161000Z AUTO 07003KT 5SM SCT098 16/13 A2972 RMK AO1 SLP051
METAR CYNL 160900Z AUTO 08005KT 9SM BKN110 16/13 A2972 RMK AO1 SLP051
METAR CYNL 160800Z AUTO 09003KT 9SM SCT082 BKN110 15/13 A2974 RMK AO1 SLP055
METAR CYNL 160700Z AUTO 12004KT 9SM FEW100 16/13 A2975 RMK AO1 SLP057
METAR CYNL 160600Z AUTO 12006KT 9SM FEW130 16/13 A2975 RMK AO1 SLP059
METAR CYNL 160500Z AUTO 13004KT 9SM FEW120 16/13 A2976 RMK AO1 SLP061
METAR CYNL 160400Z AUTO 12007KT 9SM SCT110 17/13 A2976 RMK AO1 SLP063
METAR CYNL 160300Z AUTO 11005KT 9SM FEW160 16/14 A2977 RMK AO1 SLP067
METAR CYNL 160200Z AUTO 09005KT 9SM CLR 17/15 A2977 RMK AO1 SLP069
METAR CYNL 160100Z AUTO 06002KT 9SM CLR 17/15 A2978 RMK AO1 PRESFR SLP077
SPECI CYNL 160021Z AUTO 18004G15KT 9SM FEW006 SCT034 BKN047 17/14 A2980 RMK AO1 PRESRR SLP085
SPECI CYNL 160018Z AUTO 17008G18KT 3SM VV022 18/14 A2980 RMK AO1 PRESRR SLP086
SPECI CYNL 160017Z AUTO 17007G22KT 2SM VV026 18/14 A2981 RMK AO1 PRESRR SLP086
SPECI CYNL 160016Z AUTO 17009G23KT 1 3/4SM FEW017 SCT034 BKN047 18/14 A2981 RMK AO1 PRESRR SLP086
SPECI CYNL 160015Z AUTO 17008G23KT 1 1/4SM FEW017 BKN047 BKN062 18/14 A2980 RMK AO1 PRESRR SLP085
SPECI CYNL 160014Z AUTO 17007G23KT 3/4SM FEW017 BKN047 18/14 A2980 RMK AO1 PRESRR SLP084
SPECI CYNL 160012Z AUTO 17011G23KT 5/8SM FEW033 BKN047 19/13 A2981 RMK AO1 PRESRR SLP088
SPECI CYNL 160011Z AUTO 16013G23KT 1SM FEW034 BKN047 19/13 A2982 RMK AO1 PRESRR SLP089
METAR CYNL 160000Z AUTO 17011G22KT 9SM SCT048 20/11 A2981 RMK AO1 PRESRR SLP084
SPECI CYNL 152329Z AUTO 17012G19KT 9SM CLR 24/12 A2979 RMK AO1 WSHFT (23)29 SLP079
METAR CYNL 152300Z AUTO 13013G21KT 9SM CLR 25/12 A2978 RMK AO1 SLP072
METAR CYNL 152200Z AUTO 13012G19KT 9SM CLR 24/12 A2977 RMK AO1 SLP072
METAR CYNL 152100Z AUTO 10014G20KT 9SM CLR 26/12 A2978 RMK AO1 SLP071
METAR CYNL 152000Z AUTO 11012G20KT 7SM CLR 26/12 A2980 RMK AO1 SLP077
METAR CYNL 151900Z AUTO 14009G21KT 9SM FEW054 25/12 A2981 RMK AO1 SLP081
METAR CYNL 151800Z AUTO 11009G18KT 9SM CLR 25/12 A2982 RMK AO1 SLP082
METAR CYNL 151700Z AUTO 14008KT 4SM CLR 24/13 A2984 RMK AO1 SLP087
METAR CYNL 151600Z AUTO 11008KT 3SM CLR 22/13 A2984 RMK AO1 SLP090
METAR CYNL 151500Z AUTO 12003KT 4SM CLR 20/13 A2984 RMK AO1 SLP091
METAR CYNL 151400Z AUTO 05003KT 7SM CLR 17/12 A2984 RMK AO1 SLP093
METAR CYNL 151300Z AUTO 00000KT 7SM CLR 15/11 A2985 RMK AO1 SLP094
METAR CYNL 151200Z AUTO 08003KT 6SM CLR 12/10 A2985 RMK AO1 SLP096
METAR CYNL 151100Z AUTO 08004KT 6SM CLR 12/10 A2985 RMK AO1 SLP095
METAR CYNL 151000Z AUTO 07002KT 6SM CLR 12/10 A2985 RMK AO1 SLP094
METAR CYNL 150900Z AUTO 00000KT 7SM CLR 14/10 A2985 RMK AO1 SLP094
METAR CYNL 150800Z AUTO 00000KT 8SM CLR 15/10 A2985 RMK AO1 SLP092
METAR CYNL 150700Z AUTO 00000KT 8SM CLR 17/10 A2985 RMK AO1 SLP089
METAR CYNL 150600Z AUTO 14004KT 8SM CLR 19/10 A2985 RMK AO1 SLP088
METAR CYNL 150500Z AUTO 12005KT 9SM CLR 19/10 A2985 RMK AO1 SLP088
METAR CYNL 150400Z AUTO 13006KT 9SM CLR 20/10 A2984 RMK AO1 SLP087
METAR CYNL 150300Z AUTO 13005KT 9SM CLR 22/10 A2984 RMK AO1 SLP087
METAR CYNL 150200Z AUTO 15006KT 9SM CLR 25/10 A2983 RMK AO1 SLP085
METAR CYNL 150100Z AUTO 15006KT 9SM CLR 26/09 A2983 RMK AO1 SLP084
METAR CYNL 150000Z AUTO 16012G18KT 9SM CLR 27/08 A2983 RMK AO1 SLP086
METAR CYNL 142300Z AUTO 15011KT 9SM FEW076 28/08 A2983 RMK AO1 SLP089
METAR CYNL 142200Z AUTO 14008KT 9SM CLR 27/09 A2984 RMK AO1 SLP090
METAR CYNL 142100Z AUTO 18009G16KT 9SM CLR 27/09 A2985 RMK AO1 SLP093
METAR CYNL 142000Z AUTO 17012G17KT 9SM CLR 27/08 A2985 RMK AO1 SLP093
SPECI CYNL 141903Z AUTO 14013G21KT 9SM CLR 27/09 A2986 RMK AO1 WSHFT (19)03 SLP096
METAR CYNL 141900Z AUTO 18009G16KT 9SM CLR 26/09 A2986 RMK AO1 SLP096
METAR CYNL 141800Z AUTO 16011KT 9SM CLR 26/08 A2987 RMK AO1 SLP100
METAR CYNL 141700Z AUTO 19006KT 9SM CLR 25/11 A2988 RMK AO1 SLP101
METAR CYNL 141600Z AUTO 15002KT 9SM CLR 22/12 A2988 RMK AO1 SLP104
METAR CYNL 141500Z AUTO 17004KT 8SM CLR 19/13 A2989 RMK AO1 SLP106
METAR CYNL 141400Z AUTO 10003KT 9SM CLR 17/13 A2988 RMK AO1 SLP105
METAR CYNL 141300Z AUTO 00000KT 9SM CLR 15/12 A2988 RMK AO1 SLP105
METAR CYNL 141200Z AUTO 00000KT 9SM CLR 13/10 A2989 RMK AO1 SLP106
METAR CYNL 141100Z AUTO 00000KT 9SM FEW082 13/10 A2988 RMK AO1 SLP105
METAR CYNL 141000Z AUTO 07003KT 9SM CLR 13/11 A2988 RMK AO1 SLP104
METAR CYNL 140900Z AUTO 00000KT 9SM CLR 14/10 A2989 RMK AO1 SLP104
METAR CYNL 140800Z AUTO 00000KT 9SM FEW084 15/11 A2988 RMK AO1 SLP101
METAR CYNL 140700Z AUTO 00000KT 9SM FEW082 16/10 A2988 RMK AO1 SLP101
METAR CYNL 140600Z AUTO 00000KT 9SM CLR 18/10 A2987 RMK AO1 SLP098
METAR CYNL 140500Z AUTO 13004KT 9SM CLR 19/10 A2987 RMK AO1 SLP095
METAR CYNL 140400Z AUTO 13005KT 9SM CLR 21/10 A2987 RMK AO1 SLP092
METAR CYNL 140300Z AUTO 12005KT 9SM CLR 23/09 A2986 RMK AO1 SLP090
METAR CYNL 140200Z AUTO 13005KT 9SM CLR 26/08 A2986 RMK AO1 SLP090
METAR CYNL 140100Z AUTO 14007KT 9SM FEW086 28/08 A2985 RMK AO1 SLP090
METAR CYNL 140000Z AUTO 18005KT 9SM CLR 27/08 A2986 RMK AO1 SLP096
METAR CYNL 132300Z AUTO 19006KT 9SM CLR 29/07 A2988 RMK AO1 SLP102
METAR CYNL 132200Z AUTO 16003KT 9SM CLR 28/07 A2989 RMK AO1 SLP105
METAR CYNL 132100Z AUTO 18008KT 140V230 9SM CLR 29/06 A2989 RMK AO1 SLP108
METAR CYNL 132000Z AUTO 19005KT 150V230 9SM FEW082 28/06 A2991 RMK AO1 SLP113
METAR CYNL 131900Z AUTO 00000KT 9SM FEW078 28/07 A2992 RMK AO1 SLP116
METAR CYNL 131800Z AUTO 21005KT 9SM CLR 28/07 A2993 RMK AO1 SLP118
METAR CYNL 131700Z AUTO 16005KT 9SM CLR 27/09 A2993 RMK AO1 SLP121
METAR CYNL 131600Z AUTO 00000KT 9SM CLR 25/12 A2994 RMK AO1 SLP124
METAR CYNL 131500Z AUTO 22002KT 9SM CLR 22/13 A2995 RMK AO1 SLP129
METAR CYNL 131400Z AUTO 24002KT 9SM CLR 18/13 A2996 RMK AO1 SLP132
METAR CYNL 131300Z AUTO 00000KT 9SM CLR 15/13 A2996 RMK AO1 SLP134
METAR CYNL 131200Z AUTO 25002KT 9SM CLR 12/11 A2996 RMK AO1 SLP133
METAR CYNL 131100Z AUTO 26002KT 8SM CLR 13/11 A2996 RMK AO1 SLP132
METAR CYNL 131000Z AUTO 26002KT 9SM CLR 13/10 A2996 RMK AO1 SLP131
METAR CYNL 130900Z AUTO 24002KT 8SM CLR 13/11 A2996 RMK AO1 SLP131
METAR CYNL 130800Z AUTO 00000KT 9SM CLR 13/10 A2996 RMK AO1 SLP129
METAR CYNL 130700Z AUTO 00000KT 8SM CLR 14/12 A2996 RMK AO1 SLP130
METAR CYNL 130600Z AUTO 21003KT 9SM CLR 15/12 A2997 RMK AO1 SLP130
METAR CYNL 130500Z AUTO 18002KT 7SM CLR 17/12 A2996 RMK AO1 SLP129
METAR CYNL 130400Z AUTO 25003KT 8SM CLR 18/13 A2996 RMK AO1 SLP129
METAR CYNL 130300Z AUTO 00000KT 9SM CLR 20/12 A2996 RMK AO1 SLP128
METAR CYNL 130200Z AUTO 00000KT 8SM CLR 23/12 A2996 RMK AO1 SLP126
METAR CYNL 130100Z AUTO 00000KT 9SM CLR 27/08 A2997 RMK AO1 SLP127
METAR CYNL 130000Z AUTO 27003KT 9SM CLR 27/08 A2998 RMK AO1 SLP133
METAR CYNL 122300Z AUTO 25005KT 210V290 9SM CLR 29/08 A2999 RMK AO1 PRESFR SLP138
METAR CYNL 122200Z AUTO 26004KT 9SM CLR 28/08 A3001 RMK AO1 SLP146
METAR CYNL 122100Z AUTO 23011KT 190V270 9SM CLR 29/07 A3002 RMK AO1 SLP148
METAR CYNL 122000Z AUTO 23008KT 9SM CLR 28/06 A3003 RMK AO1 SLP152
SPECI CYNL 121927Z AUTO 25006KT 9SM CLR 28/07 A3003 RMK AO1 SLP153
SPECI CYNL 121925Z AUTO 24004KT 1 1/4SM CLR 28/07 A3003 RMK AO1 SLP153
SPECI CYNL 121924Z AUTO 23004KT 1 3/4SM CLR 28/06 A3003 RMK AO1 SLP153
METAR CYNL 121900Z AUTO 26007KT 9SM CLR 28/07 A3004 RMK AO1 SLP155
METAR CYNL 121800Z AUTO 28007KT 9SM CLR 27/08 A3005 RMK AO1 SLP159
METAR CYNL 121700Z AUTO 29006KT 9SM CLR 26/09 A3006 RMK AO1 SLP162
METAR CYNL 121600Z AUTO 27005KT 9SM CLR 25/10 A3006 RMK AO1 SLP165
METAR CYNL 121500Z AUTO 27006KT 9SM CLR 24/10 A3007 RMK AO1 SLP166
METAR CYNL 121400Z AUTO 27007KT 9SM CLR 21/09 A3007 RMK AO1 SLP167
METAR CYNL 121300Z AUTO 27004KT 9SM CLR 19/09 A3007 RMK AO1 SLP166
METAR CYNL 121200Z AUTO 27003KT 9SM CLR 15/10 A3007 RMK AO1 SLP167
METAR CYNL 121100Z AUTO 24003KT 8SM CLR 14/11 A3007 RMK AO1 SLP166
METAR CYNL 121000Z AUTO 26002KT 9SM CLR 15/12 A3006 RMK AO1 SLP163
METAR CYNL 120900Z AUTO 24004KT 9SM CLR 15/13 A3006 RMK AO1 SLP162
METAR CYNL 120800Z AUTO 26002KT 9SM CLR 15/12 A3006 RMK AO1 SLP164
METAR CYNL 120700Z AUTO 24004KT 9SM CLR 16/11 A3006 RMK AO1 SLP163
METAR CYNL 120600Z AUTO 22004KT 9SM CLR 17/11 A3006 RMK AO1 SLP162
METAR CYNL 120500Z AUTO 20003KT 9SM CLR 17/12 A3005 RMK AO1 SLP161
METAR CYNL 120400Z AUTO 17003KT 9SM CLR 18/13 A3005 RMK AO1 SLP160
METAR CYNL 120300Z AUTO 00000KT 9SM CLR 21/12 A3006 RMK AO1 SLP161
METAR CYNL 120200Z AUTO 00000KT 9SM CLR 26/07 A3006 RMK AO1 SLP160
METAR CYNL 120100Z AUTO 22002KT 9SM CLR 27/06 A3007 RMK AO1 SLP164
METAR CYNL 120000Z AUTO 21004KT 5SM CLR 27/06 A3008 RMK AO1 SLP170
METAR CYNL 112300Z AUTO 18005KT 9SM FEW086 28/06 A3008 RMK AO1 SLP173
METAR CYNL 112200Z AUTO 23005KT 9SM CLR 28/06 A3009 RMK AO1 SLP176
METAR CYNL 112100Z AUTO 30006KT 240V010 9SM CLR 28/07 A3010 RMK AO1 SLP180
METAR CYNL 112000Z AUTO 20003KT 9SM FEW078 28/07 A3011 RMK AO1 SLP183
METAR CYNL 111900Z AUTO 23004KT 190V270 9SM CLR 27/07 A3012 RMK AO1 SLP187
METAR CYNL 111800Z AUTO 19005KT 160V230 9SM CLR 26/07 A3012 RMK AO1 SLP188
METAR CYNL 111700Z AUTO 20005KT 160V240 7SM CLR 25/09 A3013 RMK AO1 SLP192
METAR CYNL 111600Z AUTO 14004KT 9SM CLR 24/11 A3014 RMK AO1 SLP193
METAR CYNL 111500Z AUTO 00000KT 9SM CLR 21/13 A3014 RMK AO1 SLP195
METAR CYNL 111400Z AUTO 00000KT 9SM CLR 18/14 A3013 RMK AO1 SLP194
METAR CYNL 111300Z AUTO 00000KT 7SM CLR 15/12 A3014 RMK AO1 SLP196
METAR CYNL 111200Z AUTO 00000KT 5SM CLR 12/11 A3014 RMK AO1 SLP196
METAR CYNL 111100Z AUTO 27002KT 7SM CLR 11/10 A3013 RMK AO1 SLP194
METAR CYNL 111000Z AUTO 00000KT 9SM CLR 11/10 A3012 RMK AO1 SLP191
METAR CYNL 110900Z AUTO 00000KT 8SM CLR 12/10 A3012 RMK AO1 SLP188
METAR CYNL 110800Z AUTO 00000KT 9SM CLR 12/10 A3011 RMK AO1 SLP185
METAR CYNL 110700Z AUTO 00000KT 8SM CLR 13/10 A3011 RMK AO1 SLP185
METAR CYNL 110600Z AUTO 00000KT 9SM CLR 13/10 A3010 RMK AO1 SLP181
METAR CYNL 110500Z AUTO 23003KT 9SM CLR 15/12 A3011 RMK AO1 SLP182
METAR CYNL 110400Z AUTO 00000KT 9SM CLR 16/11 A3011 RMK AO1 SLP183
METAR CYNL 110300Z AUTO 00000KT 9SM CLR 19/10 A3010 RMK AO1 SLP180
METAR CYNL 110200Z AUTO 03003KT 9SM CLR 21/10 A3009 RMK AO1 SLP176
METAR CYNL 110100Z AUTO 03002KT 9SM CLR 24/09 A3009 RMK AO1 SLP174
METAR CYNL 110000Z AUTO 02004KT 9SM CLR 24/07 A3009 RMK AO1 SLP177
METAR CYNL 102300Z AUTO 06003KT 9SM CLR 25/07 A3009 RMK AO1 SLP178
METAR CYNL 102200Z AUTO 00000KT 9SM CLR 25/07 A3009 RMK AO1 SLP176
METAR CYNL 102100Z AUTO 01006KT 9SM CLR 25/07 A3009 RMK AO1 SLP177
METAR CYNL 102000Z AUTO 01006KT 9SM FEW190 24/08 A3009 RMK AO1 SLP179
METAR CYNL 101900Z AUTO 33008KT 290V020 9SM FEW200 25/08 A3009 RMK AO1 SLP177
METAR CYNL 101800Z AUTO 14004KT 090V190 9SM CLR 25/08 A3009 RMK AO1 SLP178
METAR CYNL 101700Z AUTO 03006KT 9SM CLR 23/08 A3009 RMK AO1 SLP179
METAR CYNL 101600Z AUTO 01007KT 9SM CLR 21/10 A3010 RMK AO1 SLP182
METAR CYNL 101500Z AUTO 02008KT 9SM CLR 19/10 A3010 RMK AO1 SLP184
METAR CYNL 101400Z AUTO 35008KT 7SM CLR 18/09 A3010 RMK AO1 SLP183
METAR CYNL 101300Z AUTO 26003KT 8SM FEW100 14/09 A3009 RMK AO1 SLP178
METAR CYNL 101200Z AUTO 25003KT 9SM CLR 12/09 A3009 RMK AO1 SLP180
METAR CYNL 101100Z AUTO 26003KT 9SM CLR 13/10 A3009 RMK AO1 SLP178
METAR CYNL 101000Z AUTO 28003KT 9SM CLR 13/11 A3009 RMK AO1 SLP177
METAR CYNL 100900Z AUTO 25002KT 9SM CLR 14/11 A3009 RMK AO1 SLP176
METAR CYNL 100800Z AUTO 26003KT 9SM CLR 14/11 A3009 RMK AO1 SLP177
METAR CYNL 100700Z AUTO 25003KT 9SM FEW094 15/11 A3008 RMK AO1 SLP176
METAR CYNL 100600Z AUTO 24003KT 9SM CLR 15/10 A3009 RMK AO1 SLP178
METAR CYNL 100500Z AUTO 21003KT 9SM BKN080 16/10 A3009 RMK AO1 SLP177
METAR CYNL 100400Z AUTO 23003KT 9SM FEW076 16/11 A3009 RMK AO1 SLP178
METAR CYNL 100300Z AUTO 25003KT 9SM CLR 19/08 A3008 RMK AO1 SLP173
METAR CYNL 100200Z AUTO 24003KT 9SM CLR 23/07 A3008 RMK AO1 SLP169
METAR CYNL 100100Z AUTO 27003KT 9SM CLR 24/05 A3008 RMK AO1 SLP171
METAR CYNL 100000Z AUTO 28005KT 9SM FEW076 25/05 A3009 RMK AO1 SLP178
METAR CYNL 092300Z AUTO 29007KT 220V350 9SM CLR 24/04 A3010 RMK AO1 SLP185
METAR CYNL 092200Z AUTO 35005KT 9SM CLR 24/05 A3010 RMK AO1 SLP188
METAR CYNL 092100Z AUTO 21004KT 170V250 9SM CLR 24/05 A3011 RMK AO1 SLP190
SPECI CYNL 092058Z AUTO 21004KT 170V240 3SM CLR 24/05 A3011 RMK AO1 SLP190
SPECI CYNL 092057Z AUTO 20004KT 170V240 2 1/2SM CLR 24/05 A3011 RMK AO1 SLP190
METAR CYNL 092000Z AUTO 16005KT 9SM CLR 23/04 A3011 RMK AO1 SLP191
METAR CYNL 091900Z AUTO 22008KT 190V260 9SM FEW070 23/04 A3012 RMK AO1 SLP194
METAR CYNL 091800Z AUTO 14004KT 9SM FEW066 23/05 A3012 RMK AO1 SLP196
METAR CYNL 091700Z AUTO 15004KT 9SM CLR 22/05 A3013 RMK AO1 SLP197
METAR CYNL 091600Z AUTO VRB03KT 9SM CLR 21/05 A3013 RMK AO1 SLP197
METAR CYNL 091500Z AUTO 00000KT 9SM CLR 21/05 A3013 RMK AO1 SLP196
METAR CYNL 091400Z AUTO 00000KT 9SM CLR 18/08 A3013 RMK AO1 SLP195
METAR CYNL 091300Z AUTO 00000KT 9SM CLR 14/10 A3013 RMK AO1 SLP198
METAR CYNL 091200Z AUTO 00000KT 9SM CLR 09/08 A3013 RMK AO1 SLP201
METAR CYNL 091100Z AUTO 00000KT 9SM CLR 08/07 A3013 RMK AO1 SLP199
SPECI CYNL 091016Z AUTO 25003KT 8SM CLR 08/07 A3013 RMK AO1 SLP200
SPECI CYNL 091015Z AUTO 24003KT 2 1/2SM CLR 08/07 A3013 RMK AO1 SLP200
SPECI CYNL 091014Z AUTO 24003KT 1 3/4SM CLR 08/07 A3013 RMK AO1 SLP200
SPECI CYNL 091010Z AUTO 25003KT 5/8SM CLR 08/07 A3013 RMK AO1 SLP200
SPECI CYNL 091009Z AUTO 25003KT 1 1/4SM CLR 08/07 A3013 RMK AO1 SLP200
SPECI CYNL 091008Z AUTO 25003KT 1 1/2SM CLR 08/07 A3013 RMK AO1 SLP200
SPECI CYNL 091007Z AUTO 25003KT 3/4SM CLR 08/07 A3013 RMK AO1 SLP200
SPECI CYNL 091005Z AUTO 25003KT 3/8SM CLR 08/07 A3013 RMK AO1 SLP200
SPECI CYNL 091003Z AUTO 25003KT 1 1/4SM CLR 08/07 A3013 RMK AO1 SLP200
SPECI CYNL 091002Z AUTO 25003KT 2SM CLR 08/07 A3013 RMK AO1 SLP200
METAR CYNL 091000Z AUTO 26002KT 9SM CLR 08/07 A3013 RMK AO1 SLP200
METAR CYNL 090900Z AUTO 00000KT 9SM CLR 08/06 A3013 RMK AO1 SLP200
METAR CYNL 090800Z AUTO 27002KT 9SM CLR 09/07 A3013 RMK AO1 SLP200
METAR CYNL 090700Z AUTO 00000KT 9SM CLR 09/07 A3013 RMK AO1 SLP200
METAR CYNL 090600Z AUTO 00000KT 9SM CLR 10/06 A3013 RMK AO1 SLP200
METAR CYNL 090500Z AUTO 00000KT 9SM CLR 11/07 A3013 RMK AO1 SLP199
METAR CYNL 090400Z AUTO 01003KT 9SM CLR 13/05 A3012 RMK AO1 SLP197
METAR CYNL 090300Z AUTO 35002KT 9SM CLR 17/07 A3012 RMK AO1 SLP192
METAR CYNL 090200Z AUTO 34004KT 9SM CLR 20/04 A3012 RMK AO1 SLP188
METAR CYNL 090100Z AUTO 01004KT 9SM CLR 21/03 A3012 RMK AO1 SLP190
METAR CYNL 090000Z AUTO 00000KT 9SM CLR 22/03 A3012 RMK AO1 SLP194
METAR CYNL 082300Z AUTO 34006KT 290V020 9SM CLR 21/02 A3013 RMK AO1 SLP199
METAR CYNL 082200Z AUTO 35007KT 9SM CLR 21/03 A3013 RMK AO1 SLP203
METAR CYNL 082100Z AUTO 32005KT 9SM CLR 21/03 A3014 RMK AO1 SLP206
METAR CYNL 082000Z AUTO 31009KT 260V010 9SM CLR 20/03 A3015 RMK AO1 SLP210
METAR CYNL 081900Z AUTO 34006KT 9SM CLR 19/04 A3016 RMK AO1 SLP212
METAR CYNL 081800Z AUTO 32005KT 9SM CLR 19/04 A3017 RMK AO1 SLP216
METAR CYNL 081700Z AUTO 26005KT 230V300 9SM FEW047 18/06 A3018 RMK AO1 SLP221
METAR CYNL 081600Z AUTO 29005KT 9SM CLR 18/06 A3019 RMK AO1 SLP225
METAR CYNL 081500Z AUTO 31005KT 9SM CLR 17/08 A3020 RMK AO1 SLP226
METAR CYNL 081400Z AUTO 29005KT 9SM CLR 15/09 A3020 RMK AO1 SLP225
METAR CYNL 081300Z AUTO 28003KT 9SM CLR 12/08 A3020 RMK AO1 SLP226
METAR CYNL 081200Z AUTO 27003KT 9SM CLR 08/07 A3020 RMK AO1 SLP227
METAR CYNL 081100Z AUTO 27002KT 9SM CLR 07/06 A3019 RMK AO1 SLP226
METAR CYNL 081000Z AUTO 25002KT 9SM CLR 07/06 A3019 RMK AO1 SLP225
METAR CYNL 080900Z AUTO 26002KT 9SM CLR 08/06 A3019 RMK AO1 SLP225
METAR CYNL 080800Z AUTO 27002KT 9SM CLR 08/06 A3019 RMK AO1 SLP225
METAR CYNL 080700Z AUTO 27002KT 9SM CLR 08/06 A3019 RMK AO1 SLP226
METAR CYNL 080600Z AUTO 27002KT 9SM CLR 08/07 A3019 RMK AO1 SLP226
METAR CYNL 080500Z AUTO 32003KT 9SM CLR 09/05 A3019 RMK AO1 SLP226
METAR CYNL 080400Z AUTO 29003KT 9SM CLR 10/06 A3019 RMK AO1 SLP225
METAR CYNL 080300Z AUTO 33003KT 9SM CLR 13/03 A3018 RMK AO1 SLP221
METAR CYNL 080200Z AUTO 34005KT 9SM CLR 16/03 A3018 RMK AO1 SLP216
METAR CYNL 080100Z AUTO 34007KT 9SM CLR 17/01 A3017 RMK AO1 SLP216
METAR CYNL 080000Z AUTO 30009KT 9SM CLR 18/03 A3017 RMK AO1 SLP215
METAR CYNL 072300Z AUTO 30005KT 9SM CLR 18/04 A3017 RMK AO1 SLP215
METAR CYNL 072200Z AUTO 31007KT 9SM CLR 18/05 A3018 RMK AO1 SLP216
METAR CYNL 072100Z AUTO 32009KT 9SM FEW043 17/05 A3018 RMK AO1 SLP218
METAR CYNL 072000Z AUTO 30008KT 9SM CLR 17/05 A3018 RMK AO1 SLP218
METAR CYNL 071900Z AUTO 33011G16KT 9SM FEW039 16/06 A3018 RMK AO1 SLP219
METAR CYNL 071800Z AUTO 33007KT 9SM SCT038 15/07 A3019 RMK AO1 SLP222
METAR CYNL 071700Z AUTO 34008G15KT 9SM BKN038 14/06 A3019 RMK AO1 SLP222
SPECI CYNL 071611Z AUTO 34008KT 9SM SCT028 BKN037 BKN210 13/07 A3018 RMK AO1 SLP221
SPECI CYNL 071607Z AUTO 33007KT 9SM BKN028 13/06 A3018 RMK AO1 SLP221
SPECI CYNL 071602Z AUTO 33005KT 9SM SCT028 BKN037 13/06 A3018 RMK AO1 SLP221
SPECI CYNL 071601Z AUTO 33007KT 9SM BKN028 BKN210 13/06 A3018 RMK AO1 SLP221
METAR CYNL 071600Z AUTO 34008KT 9SM SCT027 BKN035 BKN210 13/06 A3018 RMK AO1 SLP221
SPECI CYNL 071558Z AUTO 33008KT 9SM SCT027 BKN036 13/06 A3018 RMK AO1 SLP220
SPECI CYNL 071540Z AUTO 00005KT 9SM BKN027 13/07 A3018 RMK AO1 SLP218
SPECI CYNL 071538Z AUTO 34004KT 9SM SCT026 BKN034 13/07 A3018 RMK AO1 SLP218
SPECI CYNL 071534Z AUTO 01007KT 9SM BKN026 13/07 A3017 RMK AO1 SLP217
METAR CYNL 071500Z AUTO 02008KT 9SM SCT023 13/08 A3017 RMK AO1 SLP216
SPECI CYNL 071443Z AUTO 34007KT 9SM SCT023 13/07 A3017 RMK AO1 PRESRR SLP216
METAR CYNL 071400Z AUTO 01006KT 9SM FEW016 OVC022 11/08 A3017 RMK AO1 PRESRR SLP217
SPECI CYNL 071334Z AUTO 01008G15KT 9SM FEW008 BKN015 OVC020 11/08 A3016 RMK AO1 SLP215
SPECI CYNL 071325Z AUTO 01010KT 9SM FEW008 BKN014 OVC020 11/08 A3016 RMK AO1 SLP214
SPECI CYNL 071324Z AUTO 00009KT 9SM FEW008 SCT014 OVC020 11/08 A3016 RMK AO1 SLP214
SPECI CYNL 071323Z AUTO 00008KT 9SM FEW008 BKN014 BKN020 11/09 A3016 RMK AO1 SLP213
SPECI CYNL 071317Z AUTO 01008KT 9SM SCT008 BKN017 11/09 A3016 RMK AO1 SLP212
SPECI CYNL 071311Z AUTO 01011KT 9SM SCT008 BKN013 11/09 A3015 RMK AO1 SLP211
SPECI CYNL 071310Z AUTO 02010KT 9SM BKN008 11/09 A3015 RMK AO1 SLP211
SPECI CYNL 071309Z AUTO 02009KT 9SM SCT008 BKN010 11/09 A3015 RMK AO1 SLP211
SPECI CYNL 071305Z AUTO 01010KT 9SM BKN008 11/09 A3015 RMK AO1 SLP211
METAR CYNL 071300Z AUTO 01010KT 9SM FEW007 SCT009 BKN015 11/10 A3015 RMK AO1 SLP210
SPECI CYNL 071254Z AUTO 01008KT 9SM FEW009 SCT015 BKN240 12/10 A3015 RMK AO1 PRESRR SLP208
SPECI CYNL 071253Z AUTO 01008KT 9SM FEW009 BKN015 12/10 A3015 RMK AO1 PRESRR SLP208
SPECI CYNL 071252Z AUTO 01009KT 9SM FEW009 BKN014 12/10 A3015 RMK AO1 PRESRR SLP208
SPECI CYNL 071239Z AUTO 00008KT 9SM FEW008 SCT011 OVC015 11/10 A3015 RMK AO1 PRESRR SLP209
SPECI CYNL 071227Z AUTO 35007KT 9SM FEW006 SCT008 OVC012 11/10 A3014 RMK AO1 PRESRR SLP207
METAR CYNL 071200Z AUTO 00009KT 9SM OVC007 11/10 A3014 RMK AO1 PRESRR SLP205
SPECI CYNL 071137Z AUTO 33006KT 9SM BKN008 11/10 A3013 RMK AO1 SLP202
SPECI CYNL 071125Z AUTO 33005KT 9SM FEW008 11/10 A3012 RMK AO1 SLP201
METAR CYNL 071100Z AUTO 33005KT 9SM BKN070 12/10 A3011 RMK AO1 SLP197
METAR CYNL 071000Z AUTO 32004KT 9SM OVC068 12/11 A3010 RMK AO1 SLP193
METAR CYNL 070900Z AUTO 30004KT 9SM OVC070 12/12 A3009 RMK AO1 SLP189
METAR CYNL 070800Z AUTO 30003KT 9SM OVC074 12/11 A3009 RMK AO1 SLP188
METAR CYNL 070700Z AUTO 29003KT 9SM OVC076 12/11 A3008 RMK AO1 SLP187
METAR CYNL 070600Z AUTO 31003KT 9SM BKN078 13/11 A3008 RMK AO1 SLP186
METAR CYNL 070500Z AUTO 28004KT 9SM FEW082 13/11 A3007 RMK AO1 SLP180
METAR CYNL 070400Z AUTO 30002KT 9SM BKN070 14/12 A3006 RMK AO1 SLP174
METAR CYNL 070300Z AUTO 29003KT 9SM BKN066 15/12 A3006 RMK AO1 SLP171
METAR CYNL 070200Z AUTO 28004KT 9SM CLR 16/12 A3005 RMK AO1 SLP168
METAR CYNL 070100Z AUTO 24002KT 9SM FEW015 SCT070 16/12 A3004 RMK AO1 SLP165
METAR CYNL 070000Z AUTO VRB03KT 9SM FEW086 16/12 A3003 RMK AO1 SLP163
METAR CYNL 062300Z AUTO 32004KT 9SM BKN056 15/12 A3003 RMK AO1 SLP167
SPECI CYNL 062222Z AUTO 35007KT 9SM SCT015 BKN054 15/12 A3003 RMK AO1 SLP168
SPECI CYNL 062201Z AUTO 30006KT 9SM FEW015 BKN020 15/13 A3003 RMK AO1 SLP166
METAR CYNL 062200Z AUTO 32006KT 9SM SCT015 BKN210 16/13 A3003 RMK AO1 SLP166
METAR CYNL 062100Z AUTO 29003KT 9SM FEW012 SCT043 14/13 A3003 RMK AO1 SLP165
METAR CYNL 061900Z AUTO 01005KT 3SM SCT030 BKN042 OVC056 14/13 A3001 RMK AO1 SLP159
SPECI CYNL 061857Z AUTO 00006KT 2 1/2SM SCT029 BKN039 OVC056 14/13 A3001 RMK AO1 SLP160
SPECI CYNL 061855Z AUTO 35007KT 3SM SCT029 BKN039 OVC056 14/12 A3001 RMK AO1 SLP161
SPECI CYNL 061853Z AUTO 35008KT 2SM SCT028 BKN038 OVC056 14/12 A3001 RMK AO1 SLP161
SPECI CYNL 061851Z AUTO 34008KT 1 3/4SM SCT028 BKN038 OVC054 14/13 A3002 RMK AO1 SLP162
SPECI CYNL 061850Z AUTO 34008KT 2 1/2SM FEW023 BKN029 OVC052 14/13 A3002 RMK AO1 SLP163
SPECI CYNL 061846Z AUTO 34008KT 3SM FEW023 BKN029 BKN038 14/12 A3002 RMK AO1 SLP163
SPECI CYNL 061844Z AUTO 34007KT 2 1/2SM SCT023 OVC030 14/13 A3002 RMK AO1 SLP163
SPECI CYNL 061843Z AUTO 34007KT 2SM SCT023 OVC029 14/12 A3002 RMK AO1 SLP163
SPECI CYNL 061842Z AUTO 33007KT 1 1/2SM SCT022 OVC029 14/12 A3002 RMK AO1 SLP164
SPECI CYNL 061841Z AUTO 33008KT 1 1/4SM SCT022 OVC029 14/12 A3002 RMK AO1 SLP164
SPECI CYNL 061839Z AUTO 33007KT 2 1/2SM SCT023 BKN028 OVC037 14/12 A3002 RMK AO1 SLP164
SPECI CYNL 061834Z AUTO 33007G17KT 9SM SCT022 BKN028 OVC035 14/12 A3002 RMK AO1 SLP163
METAR CYNL 061800Z AUTO 33007KT 8SM FEW015 BKN021 17/13 A3000 RMK AO1 SLP154
SPECI CYNL 061749Z AUTO 32006KT 8SM BKN021 17/12 A3000 RMK AO1 SLP153
METAR CYNL 061700Z AUTO 30010KT 8SM FEW025 19/12 A2999 RMK AO1 SLP147
METAR CYNL 061600Z AUTO 32004KT 280V000 8SM CLR 19/12 A2998 RMK AO1 SLP144
METAR CYNL 061500Z AUTO 30005KT 6SM CLR 18/11 A2999 RMK AO1 SLP146
METAR CYNL 061400Z AUTO 29008KT 9SM CLR 18/11 A2999 RMK AO1 SLP142
METAR CYNL 061300Z AUTO 27007KT 9SM CLR 18/10 A2998 RMK AO1 SLP136
METAR CYNL 061200Z AUTO 22004KT 9SM CLR 15/10 A2998 RMK AO1 SLP138
METAR CYNL 061100Z AUTO 24004KT 9SM CLR 14/09 A2998 RMK AO1 SLP137
METAR CYNL 061000Z AUTO 23004KT 9SM CLR 15/09 A2998 RMK AO1 SLP136
METAR CYNL 060900Z AUTO 24004KT 9SM CLR 15/08 A2999 RMK AO1 SLP139
METAR CYNL 060800Z AUTO 27004KT 9SM CLR 16/08 A2999 RMK AO1 SLP139
METAR CYNL 060700Z AUTO 22003KT 8SM FEW110 16/10 A2999 RMK AO1 SLP141
METAR CYNL 060600Z AUTO 29003KT 9SM FEW092 16/09 A3000 RMK AO1 SLP143
METAR CYNL 060500Z AUTO 24003KT 9SM CLR 16/11 A3000 RMK AO1 SLP146
METAR CYNL 060400Z AUTO 22004KT 9SM CLR 18/11 A3000 RMK AO1 SLP144
METAR CYNL 060300Z AUTO 21002KT 9SM CLR 21/09 A3000 RMK AO1 SLP140
METAR CYNL 060200Z AUTO 23003KT 9SM CLR 25/06 A3000 RMK AO1 SLP140
METAR CYNL 060100Z AUTO 30004KT 9SM CLR 26/05 A3001 RMK AO1 SLP144
METAR CYNL 060000Z AUTO 27007KT 9SM CLR 27/05 A3002 RMK AO1 SLP153
METAR CYNL 052300Z AUTO 29007KT 9SM FEW088 27/04 A3003 RMK AO1 SLP158
METAR CYNL 052200Z AUTO 31008KT 280V350 9SM CLR 27/04 A3004 RMK AO1 SLP162
METAR CYNL 052100Z AUTO 27005KT 9SM CLR 27/05 A3004 RMK AO1 SLP164
METAR CYNL 052000Z AUTO 29006KT 9SM CLR 25/06 A3006 RMK AO1 SLP170
METAR CYNL 051900Z AUTO 25007KT 9SM CLR 25/04 A3007 RMK AO1 SLP171
METAR CYNL 051800Z AUTO 27005KT 9SM CLR 25/04 A3008 RMK AO1 SLP175
METAR CYNL 051700Z AUTO 31004KT 9SM CLR 25/05 A3008 RMK AO1 SLP175
METAR CYNL 051600Z AUTO 28003KT 9SM CLR 24/06 A3008 RMK AO1 SLP174
METAR CYNL 051500Z AUTO 28003KT 9SM CLR 22/08 A3009 RMK AO1 SLP176
METAR CYNL 051400Z AUTO 25003KT 9SM CLR 18/11 A3009 RMK AO1 SLP177
METAR CYNL 051300Z AUTO 25002KT 9SM CLR 14/11 A3009 RMK AO1 SLP181
SPECI CYNL 051201Z AUTO 24005KT 3SM CLR 11/11 A3009 RMK AO1 SLP183
METAR CYNL 051200Z AUTO 24005KT 2 1/2SM CLR 11/11 A3009 RMK AO1 SLP183
SPECI CYNL 051159Z AUTO 24005KT 2 1/2SM CLR 11/11 A3009 RMK AO1 SLP183
SPECI CYNL 051157Z AUTO 24005KT 3SM CLR 11/11 A3009 RMK AO1 SLP184
SPECI CYNL 051156Z AUTO 24005KT 1 1/2SM CLR 11/11 A3009 RMK AO1 SLP184
SPECI CYNL 051155Z AUTO 24005KT 3/4SM CLR 11/11 A3009 RMK AO1 SLP184
SPECI CYNL 051153Z AUTO 24005KT 5/8SM CLR 11/11 A3009 RMK AO1 SLP184
SPECI CYNL 051150Z AUTO 24005KT 1SM CLR 11/11 A3009 RMK AO1 SLP184
SPECI CYNL 051147Z AUTO 24005KT 1/2SM CLR 11/11 A3009 RMK AO1 SLP184
SPECI CYNL 051144Z AUTO 24005KT 1 3/4SM CLR 11/11 A3009 RMK AO1 SLP183
SPECI CYNL 051142Z AUTO 24004KT 2 1/2SM CLR 11/11 A3009 RMK AO1 SLP183
SPECI CYNL 051141Z AUTO 24004KT 3SM CLR 11/11 A3009 RMK AO1 SLP183
SPECI CYNL 051140Z AUTO 24005KT 2 1/2SM CLR 11/11 A3009 RMK AO1 SLP183
SPECI CYNL 051136Z AUTO 24005KT 3SM CLR 11/11 A3009 RMK AO1 SLP183
SPECI CYNL 051135Z AUTO 24004KT 2 1/2SM CLR 11/11 A3009 RMK AO1 SLP183
SPECI CYNL 051134Z AUTO 24004KT 1 1/2SM CLR 11/11 A3009 RMK AO1 SLP183
SPECI CYNL 051133Z AUTO 24004KT 1SM CLR 11/11 A3009 RMK AO1 SLP183
SPECI CYNL 051125Z AUTO 24005KT 1/2SM CLR 11/11 A3009 RMK AO1 SLP183
SPECI CYNL 051124Z AUTO 23005KT 1SM CLR 11/11 A3009 RMK AO1 SLP183
SPECI CYNL 051123Z AUTO 24004KT 2SM CLR 11/11 A3009 RMK AO1 SLP183
METAR CYNL 051100Z AUTO 25002KT 9SM CLR 10/09 A3009 RMK AO1 SLP184
METAR CYNL 051000Z AUTO 00000KT 9SM CLR 10/08 A3009 RMK AO1 SLP180
METAR CYNL 050900Z AUTO 00000KT 9SM CLR 11/09 A3009 RMK AO1 SLP182
METAR CYNL 050800Z AUTO 25003KT 9SM CLR 12/10 A3010 RMK AO1 SLP183
METAR CYNL 050700Z AUTO 00000KT 9SM CLR 12/09 A3010 RMK AO1 SLP185
METAR CYNL 050600Z AUTO 25002KT 9SM CLR 13/09 A3010 RMK AO1 SLP183
METAR CYNL 050500Z AUTO 00000KT 9SM CLR 14/09 A3010 RMK AO1 SLP183
METAR CYNL 050400Z AUTO 00000KT 9SM FEW130 17/08 A3010 RMK AO1 SLP179
METAR CYNL 050300Z AUTO 00000KT 9SM CLR 20/07 A3010 RMK AO1 SLP174
METAR CYNL 050200Z AUTO 09003KT 9SM CLR 22/06 A3009 RMK AO1 SLP172
METAR CYNL 050100Z AUTO 04004KT 6SM FEW120 23/05 A3009 RMK AO1 SLP172
METAR CYNL 050000Z AUTO 02012G18KT 9SM FEW200 22/05 A3010 RMK AO1 SLP180
METAR CYNL 042300Z AUTO 18004KT 9SM CLR 25/05 A3009 RMK AO1 SLP181
METAR CYNL 042200Z AUTO 15007KT 6SM FEW100 23/07 A3010 RMK AO1 SLP186
METAR CYNL 042100Z AUTO 00010G15KT 9SM BKN080 23/04 A3010 RMK AO1 SLP187
METAR CYNL 042000Z AUTO 12004KT 040V210 9SM FEW078 24/04 A3010 RMK AO1 SLP184
METAR CYNL 041900Z AUTO 09005KT 9SM CLR 25/04 A3010 RMK AO1 SLP185
METAR CYNL 041800Z AUTO 00004KT 9SM FEW072 23/05 A3011 RMK AO1 SLP187
METAR CYNL 041700Z AUTO 06007KT 9SM CLR 24/05 A3011 RMK AO1 SLP187
METAR CYNL 041600Z AUTO 09004KT 9SM CLR 24/06 A3012 RMK AO1 SLP188
METAR CYNL 041500Z AUTO 04007KT 9SM CLR 22/06 A3012 RMK AO1 SLP187
METAR CYNL 041400Z AUTO 00000KT 9SM CLR 21/11 A3011 RMK AO1 SLP183
METAR CYNL 041300Z AUTO 00000KT 9SM CLR 16/11 A3011 RMK AO1 SLP185
METAR CYNL 041200Z AUTO 06002KT 9SM CLR 12/09 A3011 RMK AO1 SLP188
METAR CYNL 041100Z AUTO 00000KT 9SM CLR 10/09 A3010 RMK AO1 SLP185
METAR CYNL 041000Z AUTO 26003KT 9SM CLR 10/10 A3010 RMK AO1 SLP185
METAR CYNL 040900Z AUTO 01003KT 9SM CLR 11/09 A3011 RMK AO1 SLP187
METAR CYNL 040800Z AUTO 03004KT 9SM CLR 11/08 A3011 RMK AO1 SLP186
METAR CYNL 040700Z AUTO 00000KT 9SM CLR 12/08 A3011 RMK AO1 SLP186